<?xml version="1.0" encoding="UTF-8" standalone="no" ?>
<gpx xmlns="http://www.topografix.com/GPX/1/1" xmlns:xsi="http://www.w3.org/2001/XMLSchema-instance" xsi:schemaLocation="http://www.topografix.com/GPX/1/1 http://www.topografix.com/GPX/1/1/gpx.xsd" version="1.1" creator="VisuGPX - https://www.visugpx.com">
  <metadata>
    <name>trail du 30032014</name>
    <desc><![CDATA[100% nature]]></desc>
  </metadata>
  <trk>
    <name><![CDATA[trail du 30032014_1]]></name>
    <trkseg>
      <trkpt lat="44.83946" lon="0.67397">
        <ele>91</ele>
        <time>2014-03-30T16:19:58.000Z</time>
      </trkpt>
      <trkpt lat="44.83946" lon="0.67397">
        <ele>91</ele>
        <time>2014-03-30T16:20:04.000Z</time>
      </trkpt>
      <trkpt lat="44.83953" lon="0.67368">
        <ele>89</ele>
        <time>2014-03-30T16:20:10.000Z</time>
      </trkpt>
      <trkpt lat="44.83958" lon="0.67352">
        <ele>90</ele>
        <time>2014-03-30T16:20:16.000Z</time>
      </trkpt>
      <trkpt lat="44.83958" lon="0.67352">
        <ele>90</ele>
        <time>2014-03-30T16:20:18.000Z</time>
      </trkpt>
      <trkpt lat="44.83963" lon="0.67338">
        <ele>91</ele>
        <time>2014-03-30T16:20:22.000Z</time>
      </trkpt>
      <trkpt lat="44.83963" lon="0.67338">
        <ele>91</ele>
        <time>2014-03-30T16:20:28.000Z</time>
      </trkpt>
      <trkpt lat="44.83963" lon="0.67338">
        <ele>91</ele>
        <time>2014-03-30T16:20:30.000Z</time>
      </trkpt>
      <trkpt lat="44.83963" lon="0.67338">
        <ele>91</ele>
        <time>2014-03-30T16:20:33.000Z</time>
      </trkpt>
      <trkpt lat="44.83963" lon="0.67338">
        <ele>91</ele>
        <time>2014-03-30T16:20:34.000Z</time>
      </trkpt>
      <trkpt lat="44.83963" lon="0.67338">
        <ele>91</ele>
        <time>2014-03-30T16:20:36.000Z</time>
      </trkpt>
      <trkpt lat="44.83978" lon="0.67289">
        <ele>88</ele>
        <time>2014-03-30T16:20:40.000Z</time>
      </trkpt>
      <trkpt lat="44.83978" lon="0.67289">
        <ele>88</ele>
        <time>2014-03-30T16:20:44.000Z</time>
      </trkpt>
      <trkpt lat="44.83978" lon="0.67289">
        <ele>88</ele>
        <time>2014-03-30T16:20:47.000Z</time>
      </trkpt>
      <trkpt lat="44.83978" lon="0.67289">
        <ele>88</ele>
        <time>2014-03-30T16:20:48.000Z</time>
      </trkpt>
      <trkpt lat="44.83978" lon="0.67289">
        <ele>88</ele>
        <time>2014-03-30T16:20:52.000Z</time>
      </trkpt>
      <trkpt lat="44.83978" lon="0.67289">
        <ele>88</ele>
        <time>2014-03-30T16:20:54.000Z</time>
      </trkpt>
      <trkpt lat="44.83992" lon="0.67243">
        <ele>83</ele>
        <time>2014-03-30T16:20:59.000Z</time>
      </trkpt>
      <trkpt lat="44.83995" lon="0.67231">
        <ele>83</ele>
        <time>2014-03-30T16:21:05.000Z</time>
      </trkpt>
      <trkpt lat="44.83995" lon="0.67231">
        <ele>83</ele>
        <time>2014-03-30T16:21:07.000Z</time>
      </trkpt>
      <trkpt lat="44.83995" lon="0.67231">
        <ele>83</ele>
        <time>2014-03-30T16:21:09.000Z</time>
      </trkpt>
      <trkpt lat="44.83995" lon="0.67231">
        <ele>83</ele>
        <time>2014-03-30T16:21:11.000Z</time>
      </trkpt>
      <trkpt lat="44.83995" lon="0.67231">
        <ele>83</ele>
        <time>2014-03-30T16:21:15.000Z</time>
      </trkpt>
      <trkpt lat="44.83995" lon="0.67231">
        <ele>83</ele>
        <time>2014-03-30T16:21:17.000Z</time>
      </trkpt>
      <trkpt lat="44.84003" lon="0.67212">
        <ele>87</ele>
        <time>2014-03-30T16:21:21.000Z</time>
      </trkpt>
      <trkpt lat="44.84009" lon="0.67198">
        <ele>86</ele>
        <time>2014-03-30T16:21:23.000Z</time>
      </trkpt>
      <trkpt lat="44.84009" lon="0.67198">
        <ele>86</ele>
        <time>2014-03-30T16:21:25.000Z</time>
      </trkpt>
      <trkpt lat="44.84013" lon="0.67185">
        <ele>85</ele>
        <time>2014-03-30T16:21:27.000Z</time>
      </trkpt>
      <trkpt lat="44.84015" lon="0.67178">
        <ele>86</ele>
        <time>2014-03-30T16:21:29.000Z</time>
      </trkpt>
      <trkpt lat="44.84016" lon="0.67171">
        <ele>85</ele>
        <time>2014-03-30T16:21:31.000Z</time>
      </trkpt>
      <trkpt lat="44.84016" lon="0.67171">
        <ele>85</ele>
        <time>2014-03-30T16:21:33.000Z</time>
      </trkpt>
      <trkpt lat="44.84018" lon="0.67163">
        <ele>85</ele>
        <time>2014-03-30T16:21:35.000Z</time>
      </trkpt>
      <trkpt lat="44.84018" lon="0.67163">
        <ele>85</ele>
        <time>2014-03-30T16:21:37.000Z</time>
      </trkpt>
      <trkpt lat="44.84018" lon="0.67163">
        <ele>85</ele>
        <time>2014-03-30T16:21:39.000Z</time>
      </trkpt>
      <trkpt lat="44.84018" lon="0.67163">
        <ele>85</ele>
        <time>2014-03-30T16:21:41.000Z</time>
      </trkpt>
      <trkpt lat="44.84018" lon="0.67163">
        <ele>85</ele>
        <time>2014-03-30T16:21:43.000Z</time>
      </trkpt>
      <trkpt lat="44.84023" lon="0.67144">
        <ele>78</ele>
        <time>2014-03-30T16:21:45.000Z</time>
      </trkpt>
      <trkpt lat="44.84027" lon="0.67131">
        <ele>79</ele>
        <time>2014-03-30T16:21:47.000Z</time>
      </trkpt>
      <trkpt lat="44.84031" lon="0.67122">
        <ele>79</ele>
        <time>2014-03-30T16:21:49.000Z</time>
      </trkpt>
      <trkpt lat="44.84033" lon="0.67115">
        <ele>79</ele>
        <time>2014-03-30T16:21:51.000Z</time>
      </trkpt>
      <trkpt lat="44.84034" lon="0.67109">
        <ele>78</ele>
        <time>2014-03-30T16:21:53.000Z</time>
      </trkpt>
      <trkpt lat="44.84034" lon="0.67109">
        <ele>78</ele>
        <time>2014-03-30T16:21:55.000Z</time>
      </trkpt>
      <trkpt lat="44.84034" lon="0.67109">
        <ele>78</ele>
        <time>2014-03-30T16:21:57.000Z</time>
      </trkpt>
      <trkpt lat="44.84041" lon="0.67079">
        <ele>80</ele>
        <time>2014-03-30T16:22:03.000Z</time>
      </trkpt>
      <trkpt lat="44.84041" lon="0.67079">
        <ele>80</ele>
        <time>2014-03-30T16:22:05.000Z</time>
      </trkpt>
      <trkpt lat="44.84041" lon="0.67079">
        <ele>80</ele>
        <time>2014-03-30T16:22:07.000Z</time>
      </trkpt>
      <trkpt lat="44.84045" lon="0.67061">
        <ele>78</ele>
        <time>2014-03-30T16:22:09.000Z</time>
      </trkpt>
      <trkpt lat="44.8405" lon="0.67046">
        <ele>83</ele>
        <time>2014-03-30T16:22:15.000Z</time>
      </trkpt>
      <trkpt lat="44.8405" lon="0.67046">
        <ele>83</ele>
        <time>2014-03-30T16:22:17.000Z</time>
      </trkpt>
      <trkpt lat="44.8405" lon="0.67046">
        <ele>83</ele>
        <time>2014-03-30T16:22:19.000Z</time>
      </trkpt>
      <trkpt lat="44.8405" lon="0.67046">
        <ele>83</ele>
        <time>2014-03-30T16:22:23.000Z</time>
      </trkpt>
      <trkpt lat="44.8405" lon="0.67046">
        <ele>83</ele>
        <time>2014-03-30T16:22:25.000Z</time>
      </trkpt>
      <trkpt lat="44.8405" lon="0.67046">
        <ele>83</ele>
        <time>2014-03-30T16:22:27.000Z</time>
      </trkpt>
      <trkpt lat="44.8405" lon="0.67046">
        <ele>83</ele>
        <time>2014-03-30T16:22:29.000Z</time>
      </trkpt>
      <trkpt lat="44.8405" lon="0.67046">
        <ele>83</ele>
        <time>2014-03-30T16:22:31.000Z</time>
      </trkpt>
      <trkpt lat="44.84063" lon="0.67001">
        <ele>81</ele>
        <time>2014-03-30T16:22:35.000Z</time>
      </trkpt>
      <trkpt lat="44.84069" lon="0.66989">
        <ele>82</ele>
        <time>2014-03-30T16:22:39.000Z</time>
      </trkpt>
      <trkpt lat="44.84072" lon="0.66977">
        <ele>84</ele>
        <time>2014-03-30T16:22:43.000Z</time>
      </trkpt>
      <trkpt lat="44.84072" lon="0.66977">
        <ele>84</ele>
        <time>2014-03-30T16:22:45.000Z</time>
      </trkpt>
      <trkpt lat="44.84072" lon="0.66977">
        <ele>84</ele>
        <time>2014-03-30T16:22:47.000Z</time>
      </trkpt>
      <trkpt lat="44.84072" lon="0.66977">
        <ele>84</ele>
        <time>2014-03-30T16:22:49.000Z</time>
      </trkpt>
      <trkpt lat="44.84076" lon="0.66951">
        <ele>87</ele>
        <time>2014-03-30T16:22:53.000Z</time>
      </trkpt>
      <trkpt lat="44.84076" lon="0.66951">
        <ele>87</ele>
        <time>2014-03-30T16:22:55.000Z</time>
      </trkpt>
      <trkpt lat="44.84076" lon="0.66951">
        <ele>87</ele>
        <time>2014-03-30T16:22:57.000Z</time>
      </trkpt>
      <trkpt lat="44.84076" lon="0.66951">
        <ele>87</ele>
        <time>2014-03-30T16:22:59.000Z</time>
      </trkpt>
      <trkpt lat="44.84087" lon="0.66924">
        <ele>90</ele>
        <time>2014-03-30T16:23:03.000Z</time>
      </trkpt>
      <trkpt lat="44.84087" lon="0.66924">
        <ele>90</ele>
        <time>2014-03-30T16:23:07.000Z</time>
      </trkpt>
      <trkpt lat="44.84087" lon="0.66924">
        <ele>90</ele>
        <time>2014-03-30T16:23:09.000Z</time>
      </trkpt>
      <trkpt lat="44.84087" lon="0.66924">
        <ele>90</ele>
        <time>2014-03-30T16:23:11.000Z</time>
      </trkpt>
      <trkpt lat="44.84087" lon="0.66924">
        <ele>90</ele>
        <time>2014-03-30T16:23:13.000Z</time>
      </trkpt>
      <trkpt lat="44.84087" lon="0.66924">
        <ele>90</ele>
        <time>2014-03-30T16:23:15.000Z</time>
      </trkpt>
      <trkpt lat="44.84087" lon="0.66924">
        <ele>90</ele>
        <time>2014-03-30T16:23:25.000Z</time>
      </trkpt>
      <trkpt lat="44.84092" lon="0.66893">
        <ele>84</ele>
        <time>2014-03-30T16:23:29.000Z</time>
      </trkpt>
      <trkpt lat="44.84095" lon="0.66876">
        <ele>84</ele>
        <time>2014-03-30T16:23:31.000Z</time>
      </trkpt>
      <trkpt lat="44.84096" lon="0.66865">
        <ele>80</ele>
        <time>2014-03-30T16:23:33.000Z</time>
      </trkpt>
      <trkpt lat="44.84097" lon="0.66858">
        <ele>80</ele>
        <time>2014-03-30T16:23:35.000Z</time>
      </trkpt>
      <trkpt lat="44.841" lon="0.66849">
        <ele>82</ele>
        <time>2014-03-30T16:23:39.000Z</time>
      </trkpt>
      <trkpt lat="44.84102" lon="0.66842">
        <ele>82</ele>
        <time>2014-03-30T16:23:41.000Z</time>
      </trkpt>
      <trkpt lat="44.84102" lon="0.66842">
        <ele>82</ele>
        <time>2014-03-30T16:23:45.000Z</time>
      </trkpt>
      <trkpt lat="44.84102" lon="0.66842">
        <ele>82</ele>
        <time>2014-03-30T16:23:47.000Z</time>
      </trkpt>
      <trkpt lat="44.84102" lon="0.66842">
        <ele>82</ele>
        <time>2014-03-30T16:23:49.000Z</time>
      </trkpt>
      <trkpt lat="44.84108" lon="0.66824">
        <ele>76</ele>
        <time>2014-03-30T16:23:53.000Z</time>
      </trkpt>
      <trkpt lat="44.84111" lon="0.66811">
        <ele>77</ele>
        <time>2014-03-30T16:23:55.000Z</time>
      </trkpt>
      <trkpt lat="44.84111" lon="0.66802">
        <ele>80</ele>
        <time>2014-03-30T16:23:57.000Z</time>
      </trkpt>
      <trkpt lat="44.84112" lon="0.66795">
        <ele>81</ele>
        <time>2014-03-30T16:24:00.000Z</time>
      </trkpt>
      <trkpt lat="44.84112" lon="0.66795">
        <ele>81</ele>
        <time>2014-03-30T16:24:01.000Z</time>
      </trkpt>
      <trkpt lat="44.84112" lon="0.66795">
        <ele>81</ele>
        <time>2014-03-30T16:24:03.000Z</time>
      </trkpt>
      <trkpt lat="44.84112" lon="0.66795">
        <ele>81</ele>
        <time>2014-03-30T16:24:05.000Z</time>
      </trkpt>
      <trkpt lat="44.84112" lon="0.66795">
        <ele>81</ele>
        <time>2014-03-30T16:24:07.000Z</time>
      </trkpt>
      <trkpt lat="44.84113" lon="0.66774">
        <ele>85</ele>
        <time>2014-03-30T16:24:13.000Z</time>
      </trkpt>
      <trkpt lat="44.84114" lon="0.6676">
        <ele>87</ele>
        <time>2014-03-30T16:24:15.000Z</time>
      </trkpt>
      <trkpt lat="44.84116" lon="0.6675">
        <ele>88</ele>
        <time>2014-03-30T16:24:17.000Z</time>
      </trkpt>
      <trkpt lat="44.84118" lon="0.66742">
        <ele>88</ele>
        <time>2014-03-30T16:24:19.000Z</time>
      </trkpt>
      <trkpt lat="44.84119" lon="0.66735">
        <ele>89</ele>
        <time>2014-03-30T16:24:21.000Z</time>
      </trkpt>
      <trkpt lat="44.84119" lon="0.66735">
        <ele>89</ele>
        <time>2014-03-30T16:24:23.000Z</time>
      </trkpt>
      <trkpt lat="44.84119" lon="0.66735">
        <ele>89</ele>
        <time>2014-03-30T16:24:25.000Z</time>
      </trkpt>
      <trkpt lat="44.84123" lon="0.66702">
        <ele>89</ele>
        <time>2014-03-30T16:24:31.000Z</time>
      </trkpt>
      <trkpt lat="44.84125" lon="0.66687">
        <ele>90</ele>
        <time>2014-03-30T16:24:37.000Z</time>
      </trkpt>
      <trkpt lat="44.84125" lon="0.66687">
        <ele>90</ele>
        <time>2014-03-30T16:24:39.000Z</time>
      </trkpt>
      <trkpt lat="44.84125" lon="0.66687">
        <ele>90</ele>
        <time>2014-03-30T16:24:41.000Z</time>
      </trkpt>
      <trkpt lat="44.84126" lon="0.66673">
        <ele>87</ele>
        <time>2014-03-30T16:24:43.000Z</time>
      </trkpt>
      <trkpt lat="44.8413" lon="0.6666">
        <ele>88</ele>
        <time>2014-03-30T16:24:47.000Z</time>
      </trkpt>
      <trkpt lat="44.8413" lon="0.6666">
        <ele>88</ele>
        <time>2014-03-30T16:24:49.000Z</time>
      </trkpt>
      <trkpt lat="44.8413" lon="0.6666">
        <ele>88</ele>
        <time>2014-03-30T16:24:51.000Z</time>
      </trkpt>
      <trkpt lat="44.8413" lon="0.6666">
        <ele>88</ele>
        <time>2014-03-30T16:24:53.000Z</time>
      </trkpt>
      <trkpt lat="44.8413" lon="0.6666">
        <ele>88</ele>
        <time>2014-03-30T16:24:55.000Z</time>
      </trkpt>
      <trkpt lat="44.8413" lon="0.6666">
        <ele>88</ele>
        <time>2014-03-30T16:24:57.000Z</time>
      </trkpt>
      <trkpt lat="44.8413" lon="0.6666">
        <ele>88</ele>
        <time>2014-03-30T16:24:59.000Z</time>
      </trkpt>
      <trkpt lat="44.8413" lon="0.6666">
        <ele>88</ele>
        <time>2014-03-30T16:25:03.000Z</time>
      </trkpt>
      <trkpt lat="44.84129" lon="0.66617">
        <ele>92</ele>
        <time>2014-03-30T16:25:05.000Z</time>
      </trkpt>
      <trkpt lat="44.84129" lon="0.66617">
        <ele>92</ele>
        <time>2014-03-30T16:25:07.000Z</time>
      </trkpt>
      <trkpt lat="44.84129" lon="0.66617">
        <ele>92</ele>
        <time>2014-03-30T16:25:09.000Z</time>
      </trkpt>
      <trkpt lat="44.84129" lon="0.66617">
        <ele>92</ele>
        <time>2014-03-30T16:25:11.000Z</time>
      </trkpt>
      <trkpt lat="44.84129" lon="0.66596">
        <ele>85</ele>
        <time>2014-03-30T16:25:15.000Z</time>
      </trkpt>
      <trkpt lat="44.84129" lon="0.66596">
        <ele>85</ele>
        <time>2014-03-30T16:25:19.000Z</time>
      </trkpt>
      <trkpt lat="44.84129" lon="0.66596">
        <ele>85</ele>
        <time>2014-03-30T16:25:21.000Z</time>
      </trkpt>
      <trkpt lat="44.8413" lon="0.66569">
        <ele>88</ele>
        <time>2014-03-30T16:25:25.000Z</time>
      </trkpt>
      <trkpt lat="44.8413" lon="0.66553">
        <ele>87</ele>
        <time>2014-03-30T16:25:31.000Z</time>
      </trkpt>
      <trkpt lat="44.84133" lon="0.66536">
        <ele>86</ele>
        <time>2014-03-30T16:25:37.000Z</time>
      </trkpt>
      <trkpt lat="44.84133" lon="0.66536">
        <ele>86</ele>
        <time>2014-03-30T16:25:41.000Z</time>
      </trkpt>
      <trkpt lat="44.84133" lon="0.66536">
        <ele>86</ele>
        <time>2014-03-30T16:25:43.000Z</time>
      </trkpt>
      <trkpt lat="44.84133" lon="0.66536">
        <ele>86</ele>
        <time>2014-03-30T16:25:45.000Z</time>
      </trkpt>
      <trkpt lat="44.84133" lon="0.66536">
        <ele>86</ele>
        <time>2014-03-30T16:25:47.000Z</time>
      </trkpt>
      <trkpt lat="44.84133" lon="0.66536">
        <ele>86</ele>
        <time>2014-03-30T16:25:57.000Z</time>
      </trkpt>
      <trkpt lat="44.84133" lon="0.66536">
        <ele>86</ele>
        <time>2014-03-30T16:25:59.000Z</time>
      </trkpt>
      <trkpt lat="44.84133" lon="0.66536">
        <ele>86</ele>
        <time>2014-03-30T16:26:01.000Z</time>
      </trkpt>
      <trkpt lat="44.84133" lon="0.66536">
        <ele>86</ele>
        <time>2014-03-30T16:26:03.000Z</time>
      </trkpt>
      <trkpt lat="44.84133" lon="0.66536">
        <ele>86</ele>
        <time>2014-03-30T16:26:05.000Z</time>
      </trkpt>
      <trkpt lat="44.84133" lon="0.66536">
        <ele>86</ele>
        <time>2014-03-30T16:26:07.000Z</time>
      </trkpt>
      <trkpt lat="44.84134" lon="0.66504">
        <ele>91</ele>
        <time>2014-03-30T16:26:09.000Z</time>
      </trkpt>
      <trkpt lat="44.84136" lon="0.6649">
        <ele>91</ele>
        <time>2014-03-30T16:26:11.000Z</time>
      </trkpt>
      <trkpt lat="44.84136" lon="0.6649">
        <ele>91</ele>
        <time>2014-03-30T16:26:19.000Z</time>
      </trkpt>
      <trkpt lat="44.84136" lon="0.6649">
        <ele>91</ele>
        <time>2014-03-30T16:26:21.000Z</time>
      </trkpt>
      <trkpt lat="44.84136" lon="0.6649">
        <ele>91</ele>
        <time>2014-03-30T16:26:23.000Z</time>
      </trkpt>
      <trkpt lat="44.84136" lon="0.6649">
        <ele>91</ele>
        <time>2014-03-30T16:26:25.000Z</time>
      </trkpt>
      <trkpt lat="44.84136" lon="0.6649">
        <ele>91</ele>
        <time>2014-03-30T16:26:27.000Z</time>
      </trkpt>
      <trkpt lat="44.84143" lon="0.66486">
        <ele>94</ele>
        <time>2014-03-30T16:26:31.000Z</time>
      </trkpt>
      <trkpt lat="44.84148" lon="0.66484">
        <ele>94</ele>
        <time>2014-03-30T16:26:33.000Z</time>
      </trkpt>
      <trkpt lat="44.84152" lon="0.6648">
        <ele>94</ele>
        <time>2014-03-30T16:26:37.000Z</time>
      </trkpt>
      <trkpt lat="44.84156" lon="0.66478">
        <ele>96</ele>
        <time>2014-03-30T16:26:41.000Z</time>
      </trkpt>
      <trkpt lat="44.84162" lon="0.66477">
        <ele>99</ele>
        <time>2014-03-30T16:26:47.000Z</time>
      </trkpt>
      <trkpt lat="44.84167" lon="0.66477">
        <ele>100</ele>
        <time>2014-03-30T16:26:49.000Z</time>
      </trkpt>
      <trkpt lat="44.84172" lon="0.66475">
        <ele>104</ele>
        <time>2014-03-30T16:26:55.000Z</time>
      </trkpt>
      <trkpt lat="44.84176" lon="0.66474">
        <ele>108</ele>
        <time>2014-03-30T16:26:59.000Z</time>
      </trkpt>
      <trkpt lat="44.84176" lon="0.66474">
        <ele>108</ele>
        <time>2014-03-30T16:27:01.000Z</time>
      </trkpt>
      <trkpt lat="44.84176" lon="0.66474">
        <ele>108</ele>
        <time>2014-03-30T16:27:03.000Z</time>
      </trkpt>
      <trkpt lat="44.84176" lon="0.66474">
        <ele>108</ele>
        <time>2014-03-30T16:27:05.000Z</time>
      </trkpt>
      <trkpt lat="44.84176" lon="0.66474">
        <ele>108</ele>
        <time>2014-03-30T16:27:07.000Z</time>
      </trkpt>
      <trkpt lat="44.84176" lon="0.66474">
        <ele>108</ele>
        <time>2014-03-30T16:27:09.000Z</time>
      </trkpt>
      <trkpt lat="44.84176" lon="0.66474">
        <ele>108</ele>
        <time>2014-03-30T16:27:15.000Z</time>
      </trkpt>
      <trkpt lat="44.84177" lon="0.66506">
        <ele>114</ele>
        <time>2014-03-30T16:27:45.000Z</time>
      </trkpt>
      <trkpt lat="44.84187" lon="0.66522">
        <ele>111</ele>
        <time>2014-03-30T16:27:57.000Z</time>
      </trkpt>
      <trkpt lat="44.84187" lon="0.66522">
        <ele>111</ele>
        <time>2014-03-30T16:28:03.000Z</time>
      </trkpt>
      <trkpt lat="44.84187" lon="0.66522">
        <ele>111</ele>
        <time>2014-03-30T16:28:05.000Z</time>
      </trkpt>
      <trkpt lat="44.84187" lon="0.66522">
        <ele>111</ele>
        <time>2014-03-30T16:28:07.000Z</time>
      </trkpt>
      <trkpt lat="44.84187" lon="0.66522">
        <ele>111</ele>
        <time>2014-03-30T16:28:09.000Z</time>
      </trkpt>
      <trkpt lat="44.84187" lon="0.66522">
        <ele>111</ele>
        <time>2014-03-30T16:28:11.000Z</time>
      </trkpt>
      <trkpt lat="44.84187" lon="0.66522">
        <ele>111</ele>
        <time>2014-03-30T16:28:13.000Z</time>
      </trkpt>
      <trkpt lat="44.84187" lon="0.66522">
        <ele>111</ele>
        <time>2014-03-30T16:28:15.000Z</time>
      </trkpt>
      <trkpt lat="44.84196" lon="0.66552">
        <ele>113</ele>
        <time>2014-03-30T16:28:22.000Z</time>
      </trkpt>
      <trkpt lat="44.84196" lon="0.66552">
        <ele>113</ele>
        <time>2014-03-30T16:28:30.000Z</time>
      </trkpt>
      <trkpt lat="44.84196" lon="0.66552">
        <ele>113</ele>
        <time>2014-03-30T16:28:32.000Z</time>
      </trkpt>
      <trkpt lat="44.84198" lon="0.66572">
        <ele>117</ele>
        <time>2014-03-30T16:29:07.000Z</time>
      </trkpt>
      <trkpt lat="44.84198" lon="0.66572">
        <ele>117</ele>
        <time>2014-03-30T16:29:13.000Z</time>
      </trkpt>
      <trkpt lat="44.84198" lon="0.66572">
        <ele>117</ele>
        <time>2014-03-30T16:29:21.000Z</time>
      </trkpt>
      <trkpt lat="44.84198" lon="0.66572">
        <ele>117</ele>
        <time>2014-03-30T16:29:23.000Z</time>
      </trkpt>
      <trkpt lat="44.84198" lon="0.66572">
        <ele>117</ele>
        <time>2014-03-30T16:29:25.000Z</time>
      </trkpt>
      <trkpt lat="44.84221" lon="0.66626">
        <ele>125</ele>
        <time>2014-03-30T16:29:53.000Z</time>
      </trkpt>
      <trkpt lat="44.84221" lon="0.66626">
        <ele>125</ele>
        <time>2014-03-30T16:29:59.000Z</time>
      </trkpt>
      <trkpt lat="44.84221" lon="0.66626">
        <ele>125</ele>
        <time>2014-03-30T16:30:01.000Z</time>
      </trkpt>
      <trkpt lat="44.84221" lon="0.66626">
        <ele>125</ele>
        <time>2014-03-30T16:30:03.000Z</time>
      </trkpt>
      <trkpt lat="44.84232" lon="0.6663">
        <ele>134</ele>
        <time>2014-03-30T16:30:15.000Z</time>
      </trkpt>
      <trkpt lat="44.84238" lon="0.66632">
        <ele>135</ele>
        <time>2014-03-30T16:30:17.000Z</time>
      </trkpt>
      <trkpt lat="44.84243" lon="0.66633">
        <ele>137</ele>
        <time>2014-03-30T16:30:21.000Z</time>
      </trkpt>
      <trkpt lat="44.84243" lon="0.66633">
        <ele>137</ele>
        <time>2014-03-30T16:30:23.000Z</time>
      </trkpt>
      <trkpt lat="44.84248" lon="0.66632">
        <ele>138</ele>
        <time>2014-03-30T16:30:29.000Z</time>
      </trkpt>
      <trkpt lat="44.84253" lon="0.66633">
        <ele>139</ele>
        <time>2014-03-30T16:30:33.000Z</time>
      </trkpt>
      <trkpt lat="44.84256" lon="0.66636">
        <ele>138</ele>
        <time>2014-03-30T16:30:37.000Z</time>
      </trkpt>
      <trkpt lat="44.84258" lon="0.66644">
        <ele>136</ele>
        <time>2014-03-30T16:30:43.000Z</time>
      </trkpt>
      <trkpt lat="44.84258" lon="0.6665">
        <ele>136</ele>
        <time>2014-03-30T16:30:47.000Z</time>
      </trkpt>
      <trkpt lat="44.84259" lon="0.66657">
        <ele>137</ele>
        <time>2014-03-30T16:30:51.000Z</time>
      </trkpt>
      <trkpt lat="44.84259" lon="0.66657">
        <ele>137</ele>
        <time>2014-03-30T16:30:53.000Z</time>
      </trkpt>
      <trkpt lat="44.84259" lon="0.66668">
        <ele>138</ele>
        <time>2014-03-30T16:31:01.000Z</time>
      </trkpt>
      <trkpt lat="44.84258" lon="0.66676">
        <ele>140</ele>
        <time>2014-03-30T16:31:03.000Z</time>
      </trkpt>
      <trkpt lat="44.84258" lon="0.66676">
        <ele>140</ele>
        <time>2014-03-30T16:31:05.000Z</time>
      </trkpt>
      <trkpt lat="44.84259" lon="0.66684">
        <ele>141</ele>
        <time>2014-03-30T16:31:09.000Z</time>
      </trkpt>
      <trkpt lat="44.84259" lon="0.66692">
        <ele>141</ele>
        <time>2014-03-30T16:31:13.000Z</time>
      </trkpt>
      <trkpt lat="44.84259" lon="0.667">
        <ele>142</ele>
        <time>2014-03-30T16:31:17.000Z</time>
      </trkpt>
      <trkpt lat="44.84259" lon="0.667">
        <ele>142</ele>
        <time>2014-03-30T16:31:21.000Z</time>
      </trkpt>
      <trkpt lat="44.84258" lon="0.66709">
        <ele>141</ele>
        <time>2014-03-30T16:31:23.000Z</time>
      </trkpt>
      <trkpt lat="44.84258" lon="0.66716">
        <ele>139</ele>
        <time>2014-03-30T16:31:25.000Z</time>
      </trkpt>
      <trkpt lat="44.84257" lon="0.66723">
        <ele>142</ele>
        <time>2014-03-30T16:31:29.000Z</time>
      </trkpt>
      <trkpt lat="44.84257" lon="0.66723">
        <ele>142</ele>
        <time>2014-03-30T16:31:31.000Z</time>
      </trkpt>
      <trkpt lat="44.84257" lon="0.66723">
        <ele>142</ele>
        <time>2014-03-30T16:31:33.000Z</time>
      </trkpt>
      <trkpt lat="44.84257" lon="0.66723">
        <ele>142</ele>
        <time>2014-03-30T16:31:35.000Z</time>
      </trkpt>
      <trkpt lat="44.84257" lon="0.66723">
        <ele>142</ele>
        <time>2014-03-30T16:31:37.000Z</time>
      </trkpt>
      <trkpt lat="44.84257" lon="0.66723">
        <ele>142</ele>
        <time>2014-03-30T16:31:39.000Z</time>
      </trkpt>
      <trkpt lat="44.84257" lon="0.66723">
        <ele>142</ele>
        <time>2014-03-30T16:31:41.000Z</time>
      </trkpt>
      <trkpt lat="44.84259" lon="0.66737">
        <ele>148</ele>
        <time>2014-03-30T16:31:43.000Z</time>
      </trkpt>
      <trkpt lat="44.84261" lon="0.66746">
        <ele>148</ele>
        <time>2014-03-30T16:31:45.000Z</time>
      </trkpt>
      <trkpt lat="44.84262" lon="0.66752">
        <ele>148</ele>
        <time>2014-03-30T16:31:47.000Z</time>
      </trkpt>
      <trkpt lat="44.84262" lon="0.66752">
        <ele>148</ele>
        <time>2014-03-30T16:31:49.000Z</time>
      </trkpt>
      <trkpt lat="44.84262" lon="0.66752">
        <ele>148</ele>
        <time>2014-03-30T16:31:51.000Z</time>
      </trkpt>
      <trkpt lat="44.84262" lon="0.66752">
        <ele>148</ele>
        <time>2014-03-30T16:31:53.000Z</time>
      </trkpt>
      <trkpt lat="44.84262" lon="0.66752">
        <ele>148</ele>
        <time>2014-03-30T16:31:55.000Z</time>
      </trkpt>
      <trkpt lat="44.84262" lon="0.66752">
        <ele>148</ele>
        <time>2014-03-30T16:31:57.000Z</time>
      </trkpt>
      <trkpt lat="44.84262" lon="0.66752">
        <ele>148</ele>
        <time>2014-03-30T16:32:01.000Z</time>
      </trkpt>
      <trkpt lat="44.84271" lon="0.66764">
        <ele>147</ele>
        <time>2014-03-30T16:32:05.000Z</time>
      </trkpt>
      <trkpt lat="44.84277" lon="0.66772">
        <ele>147</ele>
        <time>2014-03-30T16:32:07.000Z</time>
      </trkpt>
      <trkpt lat="44.84282" lon="0.66775">
        <ele>149</ele>
        <time>2014-03-30T16:32:09.000Z</time>
      </trkpt>
      <trkpt lat="44.84288" lon="0.66777">
        <ele>151</ele>
        <time>2014-03-30T16:32:13.000Z</time>
      </trkpt>
      <trkpt lat="44.84293" lon="0.66779">
        <ele>151</ele>
        <time>2014-03-30T16:32:17.000Z</time>
      </trkpt>
      <trkpt lat="44.84293" lon="0.66779">
        <ele>151</ele>
        <time>2014-03-30T16:32:19.000Z</time>
      </trkpt>
      <trkpt lat="44.84293" lon="0.66779">
        <ele>151</ele>
        <time>2014-03-30T16:32:21.000Z</time>
      </trkpt>
      <trkpt lat="44.84293" lon="0.66779">
        <ele>151</ele>
        <time>2014-03-30T16:32:23.000Z</time>
      </trkpt>
      <trkpt lat="44.84293" lon="0.66779">
        <ele>151</ele>
        <time>2014-03-30T16:32:25.000Z</time>
      </trkpt>
      <trkpt lat="44.84296" lon="0.66792">
        <ele>156</ele>
        <time>2014-03-30T16:32:29.000Z</time>
      </trkpt>
      <trkpt lat="44.84298" lon="0.668">
        <ele>157</ele>
        <time>2014-03-30T16:32:31.000Z</time>
      </trkpt>
      <trkpt lat="44.843" lon="0.66807">
        <ele>157</ele>
        <time>2014-03-30T16:32:35.000Z</time>
      </trkpt>
      <trkpt lat="44.843" lon="0.66807">
        <ele>157</ele>
        <time>2014-03-30T16:32:39.000Z</time>
      </trkpt>
      <trkpt lat="44.843" lon="0.66807">
        <ele>157</ele>
        <time>2014-03-30T16:32:41.000Z</time>
      </trkpt>
      <trkpt lat="44.84302" lon="0.66817">
        <ele>161</ele>
        <time>2014-03-30T16:32:43.000Z</time>
      </trkpt>
      <trkpt lat="44.84304" lon="0.66825">
        <ele>157</ele>
        <time>2014-03-30T16:32:45.000Z</time>
      </trkpt>
      <trkpt lat="44.84308" lon="0.66831">
        <ele>153</ele>
        <time>2014-03-30T16:32:49.000Z</time>
      </trkpt>
      <trkpt lat="44.84311" lon="0.66836">
        <ele>153</ele>
        <time>2014-03-30T16:32:51.000Z</time>
      </trkpt>
      <trkpt lat="44.84317" lon="0.66839">
        <ele>151</ele>
        <time>2014-03-30T16:32:55.000Z</time>
      </trkpt>
      <trkpt lat="44.84321" lon="0.66841">
        <ele>148</ele>
        <time>2014-03-30T16:32:58.000Z</time>
      </trkpt>
      <trkpt lat="44.84321" lon="0.66841">
        <ele>148</ele>
        <time>2014-03-30T16:32:59.000Z</time>
      </trkpt>
      <trkpt lat="44.84321" lon="0.66841">
        <ele>148</ele>
        <time>2014-03-30T16:33:01.000Z</time>
      </trkpt>
      <trkpt lat="44.84321" lon="0.66841">
        <ele>148</ele>
        <time>2014-03-30T16:33:03.000Z</time>
      </trkpt>
      <trkpt lat="44.84321" lon="0.66841">
        <ele>148</ele>
        <time>2014-03-30T16:33:07.000Z</time>
      </trkpt>
      <trkpt lat="44.84332" lon="0.66842">
        <ele>153</ele>
        <time>2014-03-30T16:33:09.000Z</time>
      </trkpt>
      <trkpt lat="44.8434" lon="0.66843">
        <ele>151</ele>
        <time>2014-03-30T16:33:11.000Z</time>
      </trkpt>
      <trkpt lat="44.84345" lon="0.66845">
        <ele>152</ele>
        <time>2014-03-30T16:33:13.000Z</time>
      </trkpt>
      <trkpt lat="44.84345" lon="0.66845">
        <ele>152</ele>
        <time>2014-03-30T16:33:15.000Z</time>
      </trkpt>
      <trkpt lat="44.84345" lon="0.66845">
        <ele>152</ele>
        <time>2014-03-30T16:33:17.000Z</time>
      </trkpt>
      <trkpt lat="44.84345" lon="0.66845">
        <ele>152</ele>
        <time>2014-03-30T16:33:19.000Z</time>
      </trkpt>
      <trkpt lat="44.84367" lon="0.6685">
        <ele>149</ele>
        <time>2014-03-30T16:33:40.000Z</time>
      </trkpt>
      <trkpt lat="44.84377" lon="0.66851">
        <ele>146</ele>
        <time>2014-03-30T16:33:44.000Z</time>
      </trkpt>
      <trkpt lat="44.84377" lon="0.66851">
        <ele>146</ele>
        <time>2014-03-30T16:33:46.000Z</time>
      </trkpt>
      <trkpt lat="44.84388" lon="0.66852">
        <ele>141</ele>
        <time>2014-03-30T16:33:48.000Z</time>
      </trkpt>
      <trkpt lat="44.844" lon="0.6685">
        <ele>145</ele>
        <time>2014-03-30T16:33:54.000Z</time>
      </trkpt>
      <trkpt lat="44.844" lon="0.6685">
        <ele>145</ele>
        <time>2014-03-30T16:33:56.000Z</time>
      </trkpt>
      <trkpt lat="44.8441" lon="0.66849">
        <ele>147</ele>
        <time>2014-03-30T16:33:58.000Z</time>
      </trkpt>
      <trkpt lat="44.8441" lon="0.66849">
        <ele>147</ele>
        <time>2014-03-30T16:34:02.000Z</time>
      </trkpt>
      <trkpt lat="44.8441" lon="0.66849">
        <ele>147</ele>
        <time>2014-03-30T16:34:04.000Z</time>
      </trkpt>
      <trkpt lat="44.8441" lon="0.66849">
        <ele>147</ele>
        <time>2014-03-30T16:34:06.000Z</time>
      </trkpt>
      <trkpt lat="44.8441" lon="0.66849">
        <ele>147</ele>
        <time>2014-03-30T16:34:08.000Z</time>
      </trkpt>
      <trkpt lat="44.8441" lon="0.66849">
        <ele>147</ele>
        <time>2014-03-30T16:34:10.000Z</time>
      </trkpt>
      <trkpt lat="44.8441" lon="0.66849">
        <ele>147</ele>
        <time>2014-03-30T16:34:14.000Z</time>
      </trkpt>
      <trkpt lat="44.8441" lon="0.66849">
        <ele>147</ele>
        <time>2014-03-30T16:34:16.000Z</time>
      </trkpt>
      <trkpt lat="44.84454" lon="0.66845">
        <ele>143</ele>
        <time>2014-03-30T16:34:20.000Z</time>
      </trkpt>
      <trkpt lat="44.84454" lon="0.66845">
        <ele>143</ele>
        <time>2014-03-30T16:34:24.000Z</time>
      </trkpt>
      <trkpt lat="44.84454" lon="0.66845">
        <ele>143</ele>
        <time>2014-03-30T16:34:26.000Z</time>
      </trkpt>
      <trkpt lat="44.84454" lon="0.66845">
        <ele>143</ele>
        <time>2014-03-30T16:34:28.000Z</time>
      </trkpt>
      <trkpt lat="44.84454" lon="0.66845">
        <ele>143</ele>
        <time>2014-03-30T16:34:30.000Z</time>
      </trkpt>
      <trkpt lat="44.84454" lon="0.66845">
        <ele>143</ele>
        <time>2014-03-30T16:34:32.000Z</time>
      </trkpt>
      <trkpt lat="44.84454" lon="0.66845">
        <ele>143</ele>
        <time>2014-03-30T16:34:34.000Z</time>
      </trkpt>
      <trkpt lat="44.84454" lon="0.66845">
        <ele>143</ele>
        <time>2014-03-30T16:34:36.000Z</time>
      </trkpt>
      <trkpt lat="44.84483" lon="0.66839">
        <ele>140</ele>
        <time>2014-03-30T16:34:42.000Z</time>
      </trkpt>
      <trkpt lat="44.84483" lon="0.66839">
        <ele>140</ele>
        <time>2014-03-30T16:34:44.000Z</time>
      </trkpt>
      <trkpt lat="44.84493" lon="0.66839">
        <ele>150</ele>
        <time>2014-03-30T16:34:48.000Z</time>
      </trkpt>
      <trkpt lat="44.84505" lon="0.66839">
        <ele>154</ele>
        <time>2014-03-30T16:34:54.000Z</time>
      </trkpt>
      <trkpt lat="44.84505" lon="0.66839">
        <ele>154</ele>
        <time>2014-03-30T16:35:00.000Z</time>
      </trkpt>
      <trkpt lat="44.84505" lon="0.66839">
        <ele>154</ele>
        <time>2014-03-30T16:35:02.000Z</time>
      </trkpt>
      <trkpt lat="44.84514" lon="0.6684">
        <ele>158</ele>
        <time>2014-03-30T16:35:04.000Z</time>
      </trkpt>
      <trkpt lat="44.84521" lon="0.6684">
        <ele>156</ele>
        <time>2014-03-30T16:35:06.000Z</time>
      </trkpt>
      <trkpt lat="44.84525" lon="0.66838">
        <ele>157</ele>
        <time>2014-03-30T16:35:08.000Z</time>
      </trkpt>
      <trkpt lat="44.84525" lon="0.66838">
        <ele>157</ele>
        <time>2014-03-30T16:35:10.000Z</time>
      </trkpt>
      <trkpt lat="44.84525" lon="0.66838">
        <ele>157</ele>
        <time>2014-03-30T16:35:12.000Z</time>
      </trkpt>
      <trkpt lat="44.84525" lon="0.66838">
        <ele>157</ele>
        <time>2014-03-30T16:35:14.000Z</time>
      </trkpt>
      <trkpt lat="44.84525" lon="0.66838">
        <ele>157</ele>
        <time>2014-03-30T16:35:16.000Z</time>
      </trkpt>
      <trkpt lat="44.84525" lon="0.66838">
        <ele>157</ele>
        <time>2014-03-30T16:35:18.000Z</time>
      </trkpt>
      <trkpt lat="44.84529" lon="0.66824">
        <ele>156</ele>
        <time>2014-03-30T16:35:20.000Z</time>
      </trkpt>
      <trkpt lat="44.84531" lon="0.66815">
        <ele>157</ele>
        <time>2014-03-30T16:35:22.000Z</time>
      </trkpt>
      <trkpt lat="44.84531" lon="0.66809">
        <ele>158</ele>
        <time>2014-03-30T16:35:24.000Z</time>
      </trkpt>
      <trkpt lat="44.84531" lon="0.66809">
        <ele>158</ele>
        <time>2014-03-30T16:35:26.000Z</time>
      </trkpt>
      <trkpt lat="44.84535" lon="0.668">
        <ele>155</ele>
        <time>2014-03-30T16:35:28.000Z</time>
      </trkpt>
      <trkpt lat="44.84538" lon="0.66794">
        <ele>154</ele>
        <time>2014-03-30T16:35:30.000Z</time>
      </trkpt>
      <trkpt lat="44.84538" lon="0.66794">
        <ele>154</ele>
        <time>2014-03-30T16:35:36.000Z</time>
      </trkpt>
      <trkpt lat="44.84538" lon="0.66794">
        <ele>154</ele>
        <time>2014-03-30T16:35:38.000Z</time>
      </trkpt>
      <trkpt lat="44.84538" lon="0.66794">
        <ele>154</ele>
        <time>2014-03-30T16:35:40.000Z</time>
      </trkpt>
      <trkpt lat="44.84545" lon="0.66788">
        <ele>159</ele>
        <time>2014-03-30T16:35:42.000Z</time>
      </trkpt>
      <trkpt lat="44.84551" lon="0.66786">
        <ele>158</ele>
        <time>2014-03-30T16:35:44.000Z</time>
      </trkpt>
      <trkpt lat="44.84556" lon="0.66785">
        <ele>158</ele>
        <time>2014-03-30T16:35:48.000Z</time>
      </trkpt>
      <trkpt lat="44.84562" lon="0.66785">
        <ele>156</ele>
        <time>2014-03-30T16:35:52.000Z</time>
      </trkpt>
      <trkpt lat="44.84566" lon="0.66784">
        <ele>155</ele>
        <time>2014-03-30T16:35:54.000Z</time>
      </trkpt>
      <trkpt lat="44.84566" lon="0.66784">
        <ele>155</ele>
        <time>2014-03-30T16:35:56.000Z</time>
      </trkpt>
      <trkpt lat="44.84572" lon="0.66783">
        <ele>155</ele>
        <time>2014-03-30T16:35:58.000Z</time>
      </trkpt>
      <trkpt lat="44.84572" lon="0.66783">
        <ele>155</ele>
        <time>2014-03-30T16:36:00.000Z</time>
      </trkpt>
      <trkpt lat="44.84581" lon="0.66783">
        <ele>154</ele>
        <time>2014-03-30T16:36:06.000Z</time>
      </trkpt>
      <trkpt lat="44.84587" lon="0.66781">
        <ele>154</ele>
        <time>2014-03-30T16:36:08.000Z</time>
      </trkpt>
      <trkpt lat="44.84592" lon="0.66782">
        <ele>154</ele>
        <time>2014-03-30T16:36:10.000Z</time>
      </trkpt>
      <trkpt lat="44.84592" lon="0.66782">
        <ele>154</ele>
        <time>2014-03-30T16:36:12.000Z</time>
      </trkpt>
      <trkpt lat="44.84597" lon="0.66783">
        <ele>153</ele>
        <time>2014-03-30T16:36:14.000Z</time>
      </trkpt>
      <trkpt lat="44.84602" lon="0.66783">
        <ele>152</ele>
        <time>2014-03-30T16:36:16.000Z</time>
      </trkpt>
      <trkpt lat="44.84607" lon="0.66785">
        <ele>151</ele>
        <time>2014-03-30T16:36:20.000Z</time>
      </trkpt>
      <trkpt lat="44.84607" lon="0.66785">
        <ele>151</ele>
        <time>2014-03-30T16:36:22.000Z</time>
      </trkpt>
      <trkpt lat="44.84607" lon="0.66785">
        <ele>151</ele>
        <time>2014-03-30T16:36:24.000Z</time>
      </trkpt>
      <trkpt lat="44.84607" lon="0.66785">
        <ele>151</ele>
        <time>2014-03-30T16:36:26.000Z</time>
      </trkpt>
      <trkpt lat="44.84607" lon="0.66785">
        <ele>151</ele>
        <time>2014-03-30T16:36:32.000Z</time>
      </trkpt>
      <trkpt lat="44.84607" lon="0.66785">
        <ele>151</ele>
        <time>2014-03-30T16:36:34.000Z</time>
      </trkpt>
      <trkpt lat="44.84623" lon="0.66794">
        <ele>153</ele>
        <time>2014-03-30T16:36:38.000Z</time>
      </trkpt>
      <trkpt lat="44.84631" lon="0.66801">
        <ele>155</ele>
        <time>2014-03-30T16:36:40.000Z</time>
      </trkpt>
      <trkpt lat="44.84637" lon="0.66805">
        <ele>156</ele>
        <time>2014-03-30T16:36:42.000Z</time>
      </trkpt>
      <trkpt lat="44.84641" lon="0.6681">
        <ele>151</ele>
        <time>2014-03-30T16:36:44.000Z</time>
      </trkpt>
      <trkpt lat="44.84646" lon="0.66814">
        <ele>149</ele>
        <time>2014-03-30T16:36:46.000Z</time>
      </trkpt>
      <trkpt lat="44.84654" lon="0.66821">
        <ele>150</ele>
        <time>2014-03-30T16:36:48.000Z</time>
      </trkpt>
      <trkpt lat="44.84654" lon="0.66821">
        <ele>150</ele>
        <time>2014-03-30T16:36:50.000Z</time>
      </trkpt>
      <trkpt lat="44.84654" lon="0.66821">
        <ele>150</ele>
        <time>2014-03-30T16:36:52.000Z</time>
      </trkpt>
      <trkpt lat="44.84654" lon="0.66821">
        <ele>150</ele>
        <time>2014-03-30T16:36:54.000Z</time>
      </trkpt>
      <trkpt lat="44.84662" lon="0.6684">
        <ele>154</ele>
        <time>2014-03-30T16:36:56.000Z</time>
      </trkpt>
      <trkpt lat="44.84671" lon="0.66853">
        <ele>151</ele>
        <time>2014-03-30T16:37:02.000Z</time>
      </trkpt>
      <trkpt lat="44.84684" lon="0.66866">
        <ele>154</ele>
        <time>2014-03-30T16:37:10.000Z</time>
      </trkpt>
      <trkpt lat="44.84684" lon="0.66866">
        <ele>154</ele>
        <time>2014-03-30T16:37:12.000Z</time>
      </trkpt>
      <trkpt lat="44.84684" lon="0.66866">
        <ele>154</ele>
        <time>2014-03-30T16:37:16.000Z</time>
      </trkpt>
      <trkpt lat="44.84684" lon="0.66866">
        <ele>154</ele>
        <time>2014-03-30T16:37:18.000Z</time>
      </trkpt>
      <trkpt lat="44.84684" lon="0.66866">
        <ele>154</ele>
        <time>2014-03-30T16:37:20.000Z</time>
      </trkpt>
      <trkpt lat="44.84706" lon="0.66876">
        <ele>148</ele>
        <time>2014-03-30T16:37:22.000Z</time>
      </trkpt>
      <trkpt lat="44.84718" lon="0.6688">
        <ele>149</ele>
        <time>2014-03-30T16:37:28.000Z</time>
      </trkpt>
      <trkpt lat="44.84718" lon="0.6688">
        <ele>149</ele>
        <time>2014-03-30T16:37:30.000Z</time>
      </trkpt>
      <trkpt lat="44.84718" lon="0.6688">
        <ele>149</ele>
        <time>2014-03-30T16:37:32.000Z</time>
      </trkpt>
      <trkpt lat="44.84718" lon="0.6688">
        <ele>149</ele>
        <time>2014-03-30T16:37:34.000Z</time>
      </trkpt>
      <trkpt lat="44.84718" lon="0.6688">
        <ele>149</ele>
        <time>2014-03-30T16:37:36.000Z</time>
      </trkpt>
      <trkpt lat="44.84718" lon="0.6688">
        <ele>149</ele>
        <time>2014-03-30T16:37:42.000Z</time>
      </trkpt>
      <trkpt lat="44.84718" lon="0.6688">
        <ele>149</ele>
        <time>2014-03-30T16:37:44.000Z</time>
      </trkpt>
      <trkpt lat="44.84754" lon="0.66878">
        <ele>144</ele>
        <time>2014-03-30T16:37:48.000Z</time>
      </trkpt>
      <trkpt lat="44.84754" lon="0.66878">
        <ele>144</ele>
        <time>2014-03-30T16:37:54.000Z</time>
      </trkpt>
      <trkpt lat="44.84754" lon="0.66878">
        <ele>144</ele>
        <time>2014-03-30T16:37:56.000Z</time>
      </trkpt>
      <trkpt lat="44.84754" lon="0.66878">
        <ele>144</ele>
        <time>2014-03-30T16:37:58.000Z</time>
      </trkpt>
      <trkpt lat="44.8477" lon="0.66881">
        <ele>137</ele>
        <time>2014-03-30T16:38:06.000Z</time>
      </trkpt>
      <trkpt lat="44.8478" lon="0.66883">
        <ele>138</ele>
        <time>2014-03-30T16:38:08.000Z</time>
      </trkpt>
      <trkpt lat="44.84787" lon="0.66886">
        <ele>139</ele>
        <time>2014-03-30T16:38:10.000Z</time>
      </trkpt>
      <trkpt lat="44.84792" lon="0.66887">
        <ele>141</ele>
        <time>2014-03-30T16:38:12.000Z</time>
      </trkpt>
      <trkpt lat="44.84797" lon="0.66889">
        <ele>141</ele>
        <time>2014-03-30T16:38:14.000Z</time>
      </trkpt>
      <trkpt lat="44.84797" lon="0.66889">
        <ele>141</ele>
        <time>2014-03-30T16:38:16.000Z</time>
      </trkpt>
      <trkpt lat="44.84797" lon="0.66889">
        <ele>141</ele>
        <time>2014-03-30T16:38:18.000Z</time>
      </trkpt>
      <trkpt lat="44.84797" lon="0.66889">
        <ele>141</ele>
        <time>2014-03-30T16:38:20.000Z</time>
      </trkpt>
      <trkpt lat="44.84797" lon="0.66889">
        <ele>141</ele>
        <time>2014-03-30T16:38:26.000Z</time>
      </trkpt>
      <trkpt lat="44.84797" lon="0.66889">
        <ele>141</ele>
        <time>2014-03-30T16:38:28.000Z</time>
      </trkpt>
      <trkpt lat="44.84797" lon="0.66889">
        <ele>141</ele>
        <time>2014-03-30T16:38:30.000Z</time>
      </trkpt>
      <trkpt lat="44.84838" lon="0.66897">
        <ele>145</ele>
        <time>2014-03-30T16:38:34.000Z</time>
      </trkpt>
      <trkpt lat="44.84838" lon="0.66897">
        <ele>145</ele>
        <time>2014-03-30T16:38:36.000Z</time>
      </trkpt>
      <trkpt lat="44.84838" lon="0.66897">
        <ele>145</ele>
        <time>2014-03-30T16:38:38.000Z</time>
      </trkpt>
      <trkpt lat="44.84838" lon="0.66897">
        <ele>145</ele>
        <time>2014-03-30T16:38:40.000Z</time>
      </trkpt>
      <trkpt lat="44.84861" lon="0.66902">
        <ele>141</ele>
        <time>2014-03-30T16:38:46.000Z</time>
      </trkpt>
      <trkpt lat="44.84872" lon="0.66903">
        <ele>140</ele>
        <time>2014-03-30T16:38:52.000Z</time>
      </trkpt>
      <trkpt lat="44.84872" lon="0.66903">
        <ele>140</ele>
        <time>2014-03-30T16:38:54.000Z</time>
      </trkpt>
      <trkpt lat="44.84872" lon="0.66903">
        <ele>140</ele>
        <time>2014-03-30T16:38:56.000Z</time>
      </trkpt>
      <trkpt lat="44.84872" lon="0.66903">
        <ele>140</ele>
        <time>2014-03-30T16:38:58.000Z</time>
      </trkpt>
      <trkpt lat="44.84872" lon="0.66903">
        <ele>140</ele>
        <time>2014-03-30T16:39:00.000Z</time>
      </trkpt>
      <trkpt lat="44.84893" lon="0.66901">
        <ele>138</ele>
        <time>2014-03-30T16:39:06.000Z</time>
      </trkpt>
      <trkpt lat="44.84893" lon="0.66901">
        <ele>138</ele>
        <time>2014-03-30T16:39:08.000Z</time>
      </trkpt>
      <trkpt lat="44.84893" lon="0.66901">
        <ele>138</ele>
        <time>2014-03-30T16:39:10.000Z</time>
      </trkpt>
      <trkpt lat="44.84893" lon="0.66901">
        <ele>138</ele>
        <time>2014-03-30T16:39:12.000Z</time>
      </trkpt>
      <trkpt lat="44.84893" lon="0.66901">
        <ele>138</ele>
        <time>2014-03-30T16:39:14.000Z</time>
      </trkpt>
      <trkpt lat="44.84912" lon="0.66899">
        <ele>142</ele>
        <time>2014-03-30T16:39:22.000Z</time>
      </trkpt>
      <trkpt lat="44.84912" lon="0.66899">
        <ele>142</ele>
        <time>2014-03-30T16:39:28.000Z</time>
      </trkpt>
      <trkpt lat="44.84912" lon="0.66899">
        <ele>142</ele>
        <time>2014-03-30T16:39:30.000Z</time>
      </trkpt>
      <trkpt lat="44.84912" lon="0.66899">
        <ele>142</ele>
        <time>2014-03-30T16:39:32.000Z</time>
      </trkpt>
      <trkpt lat="44.84919" lon="0.66908">
        <ele>151</ele>
        <time>2014-03-30T16:39:38.000Z</time>
      </trkpt>
      <trkpt lat="44.84923" lon="0.66914">
        <ele>149</ele>
        <time>2014-03-30T16:39:40.000Z</time>
      </trkpt>
      <trkpt lat="44.84927" lon="0.6692">
        <ele>149</ele>
        <time>2014-03-30T16:39:42.000Z</time>
      </trkpt>
      <trkpt lat="44.8493" lon="0.66925">
        <ele>149</ele>
        <time>2014-03-30T16:39:44.000Z</time>
      </trkpt>
      <trkpt lat="44.8493" lon="0.66925">
        <ele>149</ele>
        <time>2014-03-30T16:39:46.000Z</time>
      </trkpt>
      <trkpt lat="44.8493" lon="0.66925">
        <ele>149</ele>
        <time>2014-03-30T16:39:48.000Z</time>
      </trkpt>
      <trkpt lat="44.8493" lon="0.66925">
        <ele>149</ele>
        <time>2014-03-30T16:39:50.000Z</time>
      </trkpt>
      <trkpt lat="44.84937" lon="0.66934">
        <ele>158</ele>
        <time>2014-03-30T16:39:54.000Z</time>
      </trkpt>
      <trkpt lat="44.84941" lon="0.6694">
        <ele>160</ele>
        <time>2014-03-30T16:39:56.000Z</time>
      </trkpt>
      <trkpt lat="44.84941" lon="0.6694">
        <ele>160</ele>
        <time>2014-03-30T16:39:58.000Z</time>
      </trkpt>
      <trkpt lat="44.84941" lon="0.6694">
        <ele>160</ele>
        <time>2014-03-30T16:40:00.000Z</time>
      </trkpt>
      <trkpt lat="44.84949" lon="0.66948">
        <ele>162</ele>
        <time>2014-03-30T16:40:04.000Z</time>
      </trkpt>
      <trkpt lat="44.84954" lon="0.66953">
        <ele>162</ele>
        <time>2014-03-30T16:40:06.000Z</time>
      </trkpt>
      <trkpt lat="44.84958" lon="0.66956">
        <ele>162</ele>
        <time>2014-03-30T16:40:08.000Z</time>
      </trkpt>
      <trkpt lat="44.84963" lon="0.6696">
        <ele>159</ele>
        <time>2014-03-30T16:40:10.000Z</time>
      </trkpt>
      <trkpt lat="44.84967" lon="0.66964">
        <ele>158</ele>
        <time>2014-03-30T16:40:12.000Z</time>
      </trkpt>
      <trkpt lat="44.84976" lon="0.66976">
        <ele>156</ele>
        <time>2014-03-30T16:40:16.000Z</time>
      </trkpt>
      <trkpt lat="44.84976" lon="0.66976">
        <ele>156</ele>
        <time>2014-03-30T16:40:18.000Z</time>
      </trkpt>
      <trkpt lat="44.84976" lon="0.66976">
        <ele>156</ele>
        <time>2014-03-30T16:40:20.000Z</time>
      </trkpt>
      <trkpt lat="44.84976" lon="0.66976">
        <ele>156</ele>
        <time>2014-03-30T16:40:22.000Z</time>
      </trkpt>
      <trkpt lat="44.84976" lon="0.66976">
        <ele>156</ele>
        <time>2014-03-30T16:40:24.000Z</time>
      </trkpt>
      <trkpt lat="44.84976" lon="0.66976">
        <ele>156</ele>
        <time>2014-03-30T16:40:26.000Z</time>
      </trkpt>
      <trkpt lat="44.84976" lon="0.66976">
        <ele>156</ele>
        <time>2014-03-30T16:40:30.000Z</time>
      </trkpt>
      <trkpt lat="44.84997" lon="0.67015">
        <ele>158</ele>
        <time>2014-03-30T16:40:34.000Z</time>
      </trkpt>
      <trkpt lat="44.85006" lon="0.67027">
        <ele>158</ele>
        <time>2014-03-30T16:40:40.000Z</time>
      </trkpt>
      <trkpt lat="44.85006" lon="0.67027">
        <ele>158</ele>
        <time>2014-03-30T16:40:46.000Z</time>
      </trkpt>
      <trkpt lat="44.85006" lon="0.67027">
        <ele>158</ele>
        <time>2014-03-30T16:40:48.000Z</time>
      </trkpt>
      <trkpt lat="44.85006" lon="0.67027">
        <ele>158</ele>
        <time>2014-03-30T16:40:50.000Z</time>
      </trkpt>
      <trkpt lat="44.85015" lon="0.67048">
        <ele>159</ele>
        <time>2014-03-30T16:40:54.000Z</time>
      </trkpt>
      <trkpt lat="44.85021" lon="0.67063">
        <ele>159</ele>
        <time>2014-03-30T16:41:00.000Z</time>
      </trkpt>
      <trkpt lat="44.85021" lon="0.67063">
        <ele>159</ele>
        <time>2014-03-30T16:41:02.000Z</time>
      </trkpt>
      <trkpt lat="44.85021" lon="0.67063">
        <ele>159</ele>
        <time>2014-03-30T16:41:04.000Z</time>
      </trkpt>
      <trkpt lat="44.85021" lon="0.67063">
        <ele>159</ele>
        <time>2014-03-30T16:41:06.000Z</time>
      </trkpt>
      <trkpt lat="44.85021" lon="0.67063">
        <ele>159</ele>
        <time>2014-03-30T16:41:08.000Z</time>
      </trkpt>
      <trkpt lat="44.85021" lon="0.67063">
        <ele>159</ele>
        <time>2014-03-30T16:41:10.000Z</time>
      </trkpt>
      <trkpt lat="44.85021" lon="0.67063">
        <ele>159</ele>
        <time>2014-03-30T16:41:14.000Z</time>
      </trkpt>
      <trkpt lat="44.85021" lon="0.67063">
        <ele>159</ele>
        <time>2014-03-30T16:41:16.000Z</time>
      </trkpt>
      <trkpt lat="44.85021" lon="0.67063">
        <ele>159</ele>
        <time>2014-03-30T16:41:18.000Z</time>
      </trkpt>
      <trkpt lat="44.85021" lon="0.67063">
        <ele>159</ele>
        <time>2014-03-30T16:41:20.000Z</time>
      </trkpt>
      <trkpt lat="44.85021" lon="0.67063">
        <ele>159</ele>
        <time>2014-03-30T16:41:22.000Z</time>
      </trkpt>
      <trkpt lat="44.85021" lon="0.67063">
        <ele>159</ele>
        <time>2014-03-30T16:41:24.000Z</time>
      </trkpt>
      <trkpt lat="44.85021" lon="0.67063">
        <ele>159</ele>
        <time>2014-03-30T16:41:26.000Z</time>
      </trkpt>
      <trkpt lat="44.85024" lon="0.67086">
        <ele>164</ele>
        <time>2014-03-30T16:41:30.000Z</time>
      </trkpt>
      <trkpt lat="44.85025" lon="0.67099">
        <ele>165</ele>
        <time>2014-03-30T16:41:32.000Z</time>
      </trkpt>
      <trkpt lat="44.85025" lon="0.67108">
        <ele>164</ele>
        <time>2014-03-30T16:41:34.000Z</time>
      </trkpt>
      <trkpt lat="44.85025" lon="0.67108">
        <ele>164</ele>
        <time>2014-03-30T16:41:36.000Z</time>
      </trkpt>
      <trkpt lat="44.85025" lon="0.67108">
        <ele>164</ele>
        <time>2014-03-30T16:41:38.000Z</time>
      </trkpt>
      <trkpt lat="44.85025" lon="0.67108">
        <ele>164</ele>
        <time>2014-03-30T16:41:48.000Z</time>
      </trkpt>
      <trkpt lat="44.85023" lon="0.67128">
        <ele>170</ele>
        <time>2014-03-30T16:41:54.000Z</time>
      </trkpt>
      <trkpt lat="44.85022" lon="0.67142">
        <ele>168</ele>
        <time>2014-03-30T16:41:56.000Z</time>
      </trkpt>
      <trkpt lat="44.85022" lon="0.6715">
        <ele>168</ele>
        <time>2014-03-30T16:41:58.000Z</time>
      </trkpt>
      <trkpt lat="44.85022" lon="0.6715">
        <ele>168</ele>
        <time>2014-03-30T16:42:00.000Z</time>
      </trkpt>
      <trkpt lat="44.85022" lon="0.6715">
        <ele>168</ele>
        <time>2014-03-30T16:42:02.000Z</time>
      </trkpt>
      <trkpt lat="44.85022" lon="0.6715">
        <ele>168</ele>
        <time>2014-03-30T16:42:04.000Z</time>
      </trkpt>
      <trkpt lat="44.85019" lon="0.67161">
        <ele>179</ele>
        <time>2014-03-30T16:42:10.000Z</time>
      </trkpt>
      <trkpt lat="44.85017" lon="0.6717">
        <ele>177</ele>
        <time>2014-03-30T16:42:12.000Z</time>
      </trkpt>
      <trkpt lat="44.85017" lon="0.6717">
        <ele>177</ele>
        <time>2014-03-30T16:42:14.000Z</time>
      </trkpt>
      <trkpt lat="44.85015" lon="0.67177">
        <ele>174</ele>
        <time>2014-03-30T16:42:16.000Z</time>
      </trkpt>
      <trkpt lat="44.85015" lon="0.67177">
        <ele>174</ele>
        <time>2014-03-30T16:42:18.000Z</time>
      </trkpt>
      <trkpt lat="44.85015" lon="0.67177">
        <ele>174</ele>
        <time>2014-03-30T16:42:20.000Z</time>
      </trkpt>
      <trkpt lat="44.85014" lon="0.67184">
        <ele>176</ele>
        <time>2014-03-30T16:42:22.000Z</time>
      </trkpt>
      <trkpt lat="44.85014" lon="0.67184">
        <ele>176</ele>
        <time>2014-03-30T16:42:24.000Z</time>
      </trkpt>
      <trkpt lat="44.8501" lon="0.67191">
        <ele>175</ele>
        <time>2014-03-30T16:42:28.000Z</time>
      </trkpt>
      <trkpt lat="44.85008" lon="0.67198">
        <ele>176</ele>
        <time>2014-03-30T16:42:30.000Z</time>
      </trkpt>
      <trkpt lat="44.85005" lon="0.67206">
        <ele>172</ele>
        <time>2014-03-30T16:42:34.000Z</time>
      </trkpt>
      <trkpt lat="44.85003" lon="0.67211">
        <ele>172</ele>
        <time>2014-03-30T16:42:36.000Z</time>
      </trkpt>
      <trkpt lat="44.85003" lon="0.67211">
        <ele>172</ele>
        <time>2014-03-30T16:42:38.000Z</time>
      </trkpt>
      <trkpt lat="44.85003" lon="0.67211">
        <ele>172</ele>
        <time>2014-03-30T16:42:40.000Z</time>
      </trkpt>
      <trkpt lat="44.84997" lon="0.67224">
        <ele>165</ele>
        <time>2014-03-30T16:42:46.000Z</time>
      </trkpt>
      <trkpt lat="44.84993" lon="0.67231">
        <ele>163</ele>
        <time>2014-03-30T16:42:48.000Z</time>
      </trkpt>
      <trkpt lat="44.84989" lon="0.67236">
        <ele>164</ele>
        <time>2014-03-30T16:42:50.000Z</time>
      </trkpt>
      <trkpt lat="44.84984" lon="0.6724">
        <ele>168</ele>
        <time>2014-03-30T16:42:54.000Z</time>
      </trkpt>
      <trkpt lat="44.84984" lon="0.6724">
        <ele>168</ele>
        <time>2014-03-30T16:42:56.000Z</time>
      </trkpt>
      <trkpt lat="44.84984" lon="0.6724">
        <ele>168</ele>
        <time>2014-03-30T16:42:58.000Z</time>
      </trkpt>
      <trkpt lat="44.84976" lon="0.67245">
        <ele>166</ele>
        <time>2014-03-30T16:43:02.000Z</time>
      </trkpt>
      <trkpt lat="44.84972" lon="0.67249">
        <ele>170</ele>
        <time>2014-03-30T16:43:04.000Z</time>
      </trkpt>
      <trkpt lat="44.84972" lon="0.67249">
        <ele>170</ele>
        <time>2014-03-30T16:43:06.000Z</time>
      </trkpt>
      <trkpt lat="44.84972" lon="0.67249">
        <ele>170</ele>
        <time>2014-03-30T16:43:08.000Z</time>
      </trkpt>
      <trkpt lat="44.84972" lon="0.67249">
        <ele>170</ele>
        <time>2014-03-30T16:43:10.000Z</time>
      </trkpt>
      <trkpt lat="44.84969" lon="0.6726">
        <ele>173</ele>
        <time>2014-03-30T16:43:12.000Z</time>
      </trkpt>
      <trkpt lat="44.84967" lon="0.6727">
        <ele>175</ele>
        <time>2014-03-30T16:43:14.000Z</time>
      </trkpt>
      <trkpt lat="44.84967" lon="0.67277">
        <ele>178</ele>
        <time>2014-03-30T16:43:16.000Z</time>
      </trkpt>
      <trkpt lat="44.84966" lon="0.67286">
        <ele>178</ele>
        <time>2014-03-30T16:43:20.000Z</time>
      </trkpt>
      <trkpt lat="44.84966" lon="0.67294">
        <ele>178</ele>
        <time>2014-03-30T16:43:24.000Z</time>
      </trkpt>
      <trkpt lat="44.84967" lon="0.67301">
        <ele>177</ele>
        <time>2014-03-30T16:43:26.000Z</time>
      </trkpt>
      <trkpt lat="44.84967" lon="0.67301">
        <ele>177</ele>
        <time>2014-03-30T16:43:28.000Z</time>
      </trkpt>
      <trkpt lat="44.84967" lon="0.67301">
        <ele>177</ele>
        <time>2014-03-30T16:43:30.000Z</time>
      </trkpt>
      <trkpt lat="44.84967" lon="0.67301">
        <ele>177</ele>
        <time>2014-03-30T16:43:32.000Z</time>
      </trkpt>
      <trkpt lat="44.84967" lon="0.67301">
        <ele>177</ele>
        <time>2014-03-30T16:43:34.000Z</time>
      </trkpt>
      <trkpt lat="44.84964" lon="0.67309">
        <ele>179</ele>
        <time>2014-03-30T16:43:38.000Z</time>
      </trkpt>
      <trkpt lat="44.84964" lon="0.67309">
        <ele>179</ele>
        <time>2014-03-30T16:43:42.000Z</time>
      </trkpt>
      <trkpt lat="44.84964" lon="0.67309">
        <ele>179</ele>
        <time>2014-03-30T16:43:44.000Z</time>
      </trkpt>
      <trkpt lat="44.84964" lon="0.67309">
        <ele>179</ele>
        <time>2014-03-30T16:43:46.000Z</time>
      </trkpt>
      <trkpt lat="44.84964" lon="0.67309">
        <ele>179</ele>
        <time>2014-03-30T16:43:48.000Z</time>
      </trkpt>
      <trkpt lat="44.84964" lon="0.67309">
        <ele>179</ele>
        <time>2014-03-30T16:43:50.000Z</time>
      </trkpt>
      <trkpt lat="44.84949" lon="0.67312">
        <ele>179</ele>
        <time>2014-03-30T16:43:54.000Z</time>
      </trkpt>
      <trkpt lat="44.8494" lon="0.67314">
        <ele>180</ele>
        <time>2014-03-30T16:43:57.000Z</time>
      </trkpt>
      <trkpt lat="44.84935" lon="0.67315">
        <ele>179</ele>
        <time>2014-03-30T16:43:59.000Z</time>
      </trkpt>
      <trkpt lat="44.84935" lon="0.67315">
        <ele>179</ele>
        <time>2014-03-30T16:44:01.000Z</time>
      </trkpt>
      <trkpt lat="44.84935" lon="0.67315">
        <ele>179</ele>
        <time>2014-03-30T16:44:03.000Z</time>
      </trkpt>
      <trkpt lat="44.84935" lon="0.67315">
        <ele>179</ele>
        <time>2014-03-30T16:44:05.000Z</time>
      </trkpt>
      <trkpt lat="44.84935" lon="0.67315">
        <ele>179</ele>
        <time>2014-03-30T16:44:07.000Z</time>
      </trkpt>
      <trkpt lat="44.84925" lon="0.67317">
        <ele>184</ele>
        <time>2014-03-30T16:44:09.000Z</time>
      </trkpt>
      <trkpt lat="44.8492" lon="0.67318">
        <ele>187</ele>
        <time>2014-03-30T16:44:11.000Z</time>
      </trkpt>
      <trkpt lat="44.8492" lon="0.67318">
        <ele>187</ele>
        <time>2014-03-30T16:44:13.000Z</time>
      </trkpt>
      <trkpt lat="44.84914" lon="0.67318">
        <ele>190</ele>
        <time>2014-03-30T16:44:15.000Z</time>
      </trkpt>
      <trkpt lat="44.84914" lon="0.67318">
        <ele>190</ele>
        <time>2014-03-30T16:44:17.000Z</time>
      </trkpt>
      <trkpt lat="44.84908" lon="0.6732">
        <ele>187</ele>
        <time>2014-03-30T16:44:19.000Z</time>
      </trkpt>
      <trkpt lat="44.84902" lon="0.6732">
        <ele>187</ele>
        <time>2014-03-30T16:44:21.000Z</time>
      </trkpt>
      <trkpt lat="44.84897" lon="0.67322">
        <ele>185</ele>
        <time>2014-03-30T16:44:23.000Z</time>
      </trkpt>
      <trkpt lat="44.84893" lon="0.67326">
        <ele>183</ele>
        <time>2014-03-30T16:44:25.000Z</time>
      </trkpt>
      <trkpt lat="44.84889" lon="0.6733">
        <ele>181</ele>
        <time>2014-03-30T16:44:27.000Z</time>
      </trkpt>
      <trkpt lat="44.84889" lon="0.6733">
        <ele>181</ele>
        <time>2014-03-30T16:44:29.000Z</time>
      </trkpt>
      <trkpt lat="44.84889" lon="0.6733">
        <ele>181</ele>
        <time>2014-03-30T16:44:31.000Z</time>
      </trkpt>
      <trkpt lat="44.84876" lon="0.67355">
        <ele>180</ele>
        <time>2014-03-30T16:44:35.000Z</time>
      </trkpt>
      <trkpt lat="44.84866" lon="0.67359">
        <ele>181</ele>
        <time>2014-03-30T16:44:39.000Z</time>
      </trkpt>
      <trkpt lat="44.84856" lon="0.67363">
        <ele>175</ele>
        <time>2014-03-30T16:44:43.000Z</time>
      </trkpt>
      <trkpt lat="44.84856" lon="0.67363">
        <ele>175</ele>
        <time>2014-03-30T16:44:45.000Z</time>
      </trkpt>
      <trkpt lat="44.84856" lon="0.67363">
        <ele>175</ele>
        <time>2014-03-30T16:44:47.000Z</time>
      </trkpt>
      <trkpt lat="44.84856" lon="0.67363">
        <ele>175</ele>
        <time>2014-03-30T16:44:49.000Z</time>
      </trkpt>
      <trkpt lat="44.84856" lon="0.67363">
        <ele>175</ele>
        <time>2014-03-30T16:44:51.000Z</time>
      </trkpt>
      <trkpt lat="44.84856" lon="0.67363">
        <ele>175</ele>
        <time>2014-03-30T16:44:55.000Z</time>
      </trkpt>
      <trkpt lat="44.84856" lon="0.67363">
        <ele>175</ele>
        <time>2014-03-30T16:44:57.000Z</time>
      </trkpt>
      <trkpt lat="44.8483" lon="0.67376">
        <ele>174</ele>
        <time>2014-03-30T16:45:05.000Z</time>
      </trkpt>
      <trkpt lat="44.8482" lon="0.67372">
        <ele>178</ele>
        <time>2014-03-30T16:45:11.000Z</time>
      </trkpt>
      <trkpt lat="44.8482" lon="0.67372">
        <ele>178</ele>
        <time>2014-03-30T16:45:15.000Z</time>
      </trkpt>
      <trkpt lat="44.8482" lon="0.67372">
        <ele>178</ele>
        <time>2014-03-30T16:45:17.000Z</time>
      </trkpt>
      <trkpt lat="44.8482" lon="0.67372">
        <ele>178</ele>
        <time>2014-03-30T16:45:19.000Z</time>
      </trkpt>
      <trkpt lat="44.84797" lon="0.67355">
        <ele>184</ele>
        <time>2014-03-30T16:45:25.000Z</time>
      </trkpt>
      <trkpt lat="44.84786" lon="0.67354">
        <ele>180</ele>
        <time>2014-03-30T16:45:29.000Z</time>
      </trkpt>
      <trkpt lat="44.84786" lon="0.67354">
        <ele>180</ele>
        <time>2014-03-30T16:45:31.000Z</time>
      </trkpt>
      <trkpt lat="44.84786" lon="0.67354">
        <ele>180</ele>
        <time>2014-03-30T16:45:33.000Z</time>
      </trkpt>
      <trkpt lat="44.84775" lon="0.67346">
        <ele>180</ele>
        <time>2014-03-30T16:45:35.000Z</time>
      </trkpt>
      <trkpt lat="44.84764" lon="0.67343">
        <ele>181</ele>
        <time>2014-03-30T16:45:39.000Z</time>
      </trkpt>
      <trkpt lat="44.84764" lon="0.67343">
        <ele>181</ele>
        <time>2014-03-30T16:45:41.000Z</time>
      </trkpt>
      <trkpt lat="44.84756" lon="0.6734">
        <ele>181</ele>
        <time>2014-03-30T16:45:43.000Z</time>
      </trkpt>
      <trkpt lat="44.84749" lon="0.67327">
        <ele>183</ele>
        <time>2014-03-30T16:45:47.000Z</time>
      </trkpt>
      <trkpt lat="44.84744" lon="0.67324">
        <ele>183</ele>
        <time>2014-03-30T16:45:51.000Z</time>
      </trkpt>
      <trkpt lat="44.84744" lon="0.67324">
        <ele>183</ele>
        <time>2014-03-30T16:45:53.000Z</time>
      </trkpt>
      <trkpt lat="44.84744" lon="0.67324">
        <ele>183</ele>
        <time>2014-03-30T16:45:55.000Z</time>
      </trkpt>
      <trkpt lat="44.84744" lon="0.67324">
        <ele>183</ele>
        <time>2014-03-30T16:46:01.000Z</time>
      </trkpt>
      <trkpt lat="44.84744" lon="0.67324">
        <ele>183</ele>
        <time>2014-03-30T16:46:03.000Z</time>
      </trkpt>
      <trkpt lat="44.84728" lon="0.67314">
        <ele>183</ele>
        <time>2014-03-30T16:46:07.000Z</time>
      </trkpt>
      <trkpt lat="44.84719" lon="0.67306">
        <ele>182</ele>
        <time>2014-03-30T16:46:09.000Z</time>
      </trkpt>
      <trkpt lat="44.84712" lon="0.67299">
        <ele>179</ele>
        <time>2014-03-30T16:46:11.000Z</time>
      </trkpt>
      <trkpt lat="44.84707" lon="0.67295">
        <ele>180</ele>
        <time>2014-03-30T16:46:13.000Z</time>
      </trkpt>
      <trkpt lat="44.84703" lon="0.67292">
        <ele>182</ele>
        <time>2014-03-30T16:46:15.000Z</time>
      </trkpt>
      <trkpt lat="44.84703" lon="0.67292">
        <ele>182</ele>
        <time>2014-03-30T16:46:17.000Z</time>
      </trkpt>
      <trkpt lat="44.84703" lon="0.67292">
        <ele>182</ele>
        <time>2014-03-30T16:46:19.000Z</time>
      </trkpt>
      <trkpt lat="44.84685" lon="0.67283">
        <ele>177</ele>
        <time>2014-03-30T16:46:21.000Z</time>
      </trkpt>
      <trkpt lat="44.84685" lon="0.67283">
        <ele>177</ele>
        <time>2014-03-30T16:46:25.000Z</time>
      </trkpt>
      <trkpt lat="44.84685" lon="0.67283">
        <ele>177</ele>
        <time>2014-03-30T16:46:27.000Z</time>
      </trkpt>
      <trkpt lat="44.84685" lon="0.67283">
        <ele>177</ele>
        <time>2014-03-30T16:46:29.000Z</time>
      </trkpt>
      <trkpt lat="44.84685" lon="0.67283">
        <ele>177</ele>
        <time>2014-03-30T16:46:31.000Z</time>
      </trkpt>
      <trkpt lat="44.84685" lon="0.67283">
        <ele>177</ele>
        <time>2014-03-30T16:46:33.000Z</time>
      </trkpt>
      <trkpt lat="44.84661" lon="0.67276">
        <ele>176</ele>
        <time>2014-03-30T16:46:39.000Z</time>
      </trkpt>
      <trkpt lat="44.84661" lon="0.67276">
        <ele>176</ele>
        <time>2014-03-30T16:46:43.000Z</time>
      </trkpt>
      <trkpt lat="44.84661" lon="0.67276">
        <ele>176</ele>
        <time>2014-03-30T16:46:45.000Z</time>
      </trkpt>
      <trkpt lat="44.84652" lon="0.67271">
        <ele>179</ele>
        <time>2014-03-30T16:46:47.000Z</time>
      </trkpt>
      <trkpt lat="44.84641" lon="0.67273">
        <ele>176</ele>
        <time>2014-03-30T16:46:53.000Z</time>
      </trkpt>
      <trkpt lat="44.8463" lon="0.67272">
        <ele>176</ele>
        <time>2014-03-30T16:46:59.000Z</time>
      </trkpt>
      <trkpt lat="44.8462" lon="0.6727">
        <ele>173</ele>
        <time>2014-03-30T16:47:03.000Z</time>
      </trkpt>
      <trkpt lat="44.84612" lon="0.67263">
        <ele>176</ele>
        <time>2014-03-30T16:47:07.000Z</time>
      </trkpt>
      <trkpt lat="44.84612" lon="0.67263">
        <ele>176</ele>
        <time>2014-03-30T16:47:09.000Z</time>
      </trkpt>
      <trkpt lat="44.84612" lon="0.67263">
        <ele>176</ele>
        <time>2014-03-30T16:47:11.000Z</time>
      </trkpt>
      <trkpt lat="44.84599" lon="0.67247">
        <ele>177</ele>
        <time>2014-03-30T16:47:15.000Z</time>
      </trkpt>
      <trkpt lat="44.84599" lon="0.67247">
        <ele>177</ele>
        <time>2014-03-30T16:47:19.000Z</time>
      </trkpt>
      <trkpt lat="44.84599" lon="0.67247">
        <ele>177</ele>
        <time>2014-03-30T16:47:21.000Z</time>
      </trkpt>
      <trkpt lat="44.84592" lon="0.67212">
        <ele>172</ele>
        <time>2014-03-30T16:47:27.000Z</time>
      </trkpt>
      <trkpt lat="44.84592" lon="0.67212">
        <ele>172</ele>
        <time>2014-03-30T16:47:29.000Z</time>
      </trkpt>
      <trkpt lat="44.84592" lon="0.67212">
        <ele>172</ele>
        <time>2014-03-30T16:47:31.000Z</time>
      </trkpt>
      <trkpt lat="44.84592" lon="0.67212">
        <ele>172</ele>
        <time>2014-03-30T16:47:33.000Z</time>
      </trkpt>
      <trkpt lat="44.84592" lon="0.67212">
        <ele>172</ele>
        <time>2014-03-30T16:47:35.000Z</time>
      </trkpt>
      <trkpt lat="44.84592" lon="0.67212">
        <ele>172</ele>
        <time>2014-03-30T16:47:37.000Z</time>
      </trkpt>
      <trkpt lat="44.84592" lon="0.67212">
        <ele>172</ele>
        <time>2014-03-30T16:47:39.000Z</time>
      </trkpt>
      <trkpt lat="44.84592" lon="0.67212">
        <ele>172</ele>
        <time>2014-03-30T16:47:41.000Z</time>
      </trkpt>
      <trkpt lat="44.84592" lon="0.67212">
        <ele>172</ele>
        <time>2014-03-30T16:47:43.000Z</time>
      </trkpt>
      <trkpt lat="44.84592" lon="0.67212">
        <ele>172</ele>
        <time>2014-03-30T16:47:45.000Z</time>
      </trkpt>
      <trkpt lat="44.84586" lon="0.67186">
        <ele>168</ele>
        <time>2014-03-30T16:47:49.000Z</time>
      </trkpt>
      <trkpt lat="44.84586" lon="0.67186">
        <ele>168</ele>
        <time>2014-03-30T16:47:51.000Z</time>
      </trkpt>
      <trkpt lat="44.84582" lon="0.67168">
        <ele>168</ele>
        <time>2014-03-30T16:47:53.000Z</time>
      </trkpt>
      <trkpt lat="44.84579" lon="0.67156">
        <ele>169</ele>
        <time>2014-03-30T16:47:55.000Z</time>
      </trkpt>
      <trkpt lat="44.84579" lon="0.67156">
        <ele>169</ele>
        <time>2014-03-30T16:47:57.000Z</time>
      </trkpt>
      <trkpt lat="44.84578" lon="0.67143">
        <ele>167</ele>
        <time>2014-03-30T16:48:01.000Z</time>
      </trkpt>
      <trkpt lat="44.84576" lon="0.67134">
        <ele>167</ele>
        <time>2014-03-30T16:48:03.000Z</time>
      </trkpt>
      <trkpt lat="44.84576" lon="0.67134">
        <ele>167</ele>
        <time>2014-03-30T16:48:05.000Z</time>
      </trkpt>
      <trkpt lat="44.84576" lon="0.67134">
        <ele>167</ele>
        <time>2014-03-30T16:48:09.000Z</time>
      </trkpt>
      <trkpt lat="44.84576" lon="0.67134">
        <ele>167</ele>
        <time>2014-03-30T16:48:11.000Z</time>
      </trkpt>
      <trkpt lat="44.84576" lon="0.67134">
        <ele>167</ele>
        <time>2014-03-30T16:48:13.000Z</time>
      </trkpt>
      <trkpt lat="44.84576" lon="0.67134">
        <ele>167</ele>
        <time>2014-03-30T16:48:16.000Z</time>
      </trkpt>
      <trkpt lat="44.84577" lon="0.67108">
        <ele>171</ele>
        <time>2014-03-30T16:48:18.000Z</time>
      </trkpt>
      <trkpt lat="44.84576" lon="0.67093">
        <ele>172</ele>
        <time>2014-03-30T16:48:20.000Z</time>
      </trkpt>
      <trkpt lat="44.84575" lon="0.67084">
        <ele>175</ele>
        <time>2014-03-30T16:48:22.000Z</time>
      </trkpt>
      <trkpt lat="44.84575" lon="0.67076">
        <ele>176</ele>
        <time>2014-03-30T16:48:24.000Z</time>
      </trkpt>
      <trkpt lat="44.84575" lon="0.67068">
        <ele>175</ele>
        <time>2014-03-30T16:48:26.000Z</time>
      </trkpt>
      <trkpt lat="44.84575" lon="0.67055">
        <ele>180</ele>
        <time>2014-03-30T16:48:28.000Z</time>
      </trkpt>
      <trkpt lat="44.84575" lon="0.67055">
        <ele>180</ele>
        <time>2014-03-30T16:48:32.000Z</time>
      </trkpt>
      <trkpt lat="44.84575" lon="0.67055">
        <ele>180</ele>
        <time>2014-03-30T16:48:34.000Z</time>
      </trkpt>
      <trkpt lat="44.84575" lon="0.67055">
        <ele>180</ele>
        <time>2014-03-30T16:48:36.000Z</time>
      </trkpt>
      <trkpt lat="44.84575" lon="0.67055">
        <ele>180</ele>
        <time>2014-03-30T16:48:38.000Z</time>
      </trkpt>
      <trkpt lat="44.84575" lon="0.67055">
        <ele>180</ele>
        <time>2014-03-30T16:48:40.000Z</time>
      </trkpt>
      <trkpt lat="44.84575" lon="0.67055">
        <ele>180</ele>
        <time>2014-03-30T16:48:42.000Z</time>
      </trkpt>
      <trkpt lat="44.84572" lon="0.67012">
        <ele>175</ele>
        <time>2014-03-30T16:48:44.000Z</time>
      </trkpt>
      <trkpt lat="44.84572" lon="0.67012">
        <ele>175</ele>
        <time>2014-03-30T16:48:50.000Z</time>
      </trkpt>
      <trkpt lat="44.84572" lon="0.66984">
        <ele>173</ele>
        <time>2014-03-30T16:48:56.000Z</time>
      </trkpt>
      <trkpt lat="44.84578" lon="0.66974">
        <ele>176</ele>
        <time>2014-03-30T16:49:00.000Z</time>
      </trkpt>
      <trkpt lat="44.84578" lon="0.66974">
        <ele>176</ele>
        <time>2014-03-30T16:49:02.000Z</time>
      </trkpt>
      <trkpt lat="44.84578" lon="0.66974">
        <ele>176</ele>
        <time>2014-03-30T16:49:04.000Z</time>
      </trkpt>
      <trkpt lat="44.84578" lon="0.66974">
        <ele>176</ele>
        <time>2014-03-30T16:49:06.000Z</time>
      </trkpt>
      <trkpt lat="44.84578" lon="0.66974">
        <ele>176</ele>
        <time>2014-03-30T16:49:12.000Z</time>
      </trkpt>
      <trkpt lat="44.84578" lon="0.66974">
        <ele>176</ele>
        <time>2014-03-30T16:49:14.000Z</time>
      </trkpt>
      <trkpt lat="44.8455" lon="0.66952">
        <ele>169</ele>
        <time>2014-03-30T16:49:18.000Z</time>
      </trkpt>
      <trkpt lat="44.84547" lon="0.66933">
        <ele>170</ele>
        <time>2014-03-30T16:49:24.000Z</time>
      </trkpt>
      <trkpt lat="44.84549" lon="0.6692">
        <ele>172</ele>
        <time>2014-03-30T16:49:28.000Z</time>
      </trkpt>
      <trkpt lat="44.84545" lon="0.66907">
        <ele>170</ele>
        <time>2014-03-30T16:49:32.000Z</time>
      </trkpt>
      <trkpt lat="44.84542" lon="0.66893">
        <ele>164</ele>
        <time>2014-03-30T16:49:36.000Z</time>
      </trkpt>
      <trkpt lat="44.84542" lon="0.66893">
        <ele>164</ele>
        <time>2014-03-30T16:49:38.000Z</time>
      </trkpt>
      <trkpt lat="44.84542" lon="0.66893">
        <ele>164</ele>
        <time>2014-03-30T16:49:40.000Z</time>
      </trkpt>
      <trkpt lat="44.84542" lon="0.66893">
        <ele>164</ele>
        <time>2014-03-30T16:49:42.000Z</time>
      </trkpt>
      <trkpt lat="44.84542" lon="0.66893">
        <ele>164</ele>
        <time>2014-03-30T16:49:44.000Z</time>
      </trkpt>
      <trkpt lat="44.84542" lon="0.66893">
        <ele>164</ele>
        <time>2014-03-30T16:49:46.000Z</time>
      </trkpt>
      <trkpt lat="44.84538" lon="0.66873">
        <ele>159</ele>
        <time>2014-03-30T16:49:50.000Z</time>
      </trkpt>
      <trkpt lat="44.84533" lon="0.6686">
        <ele>158</ele>
        <time>2014-03-30T16:49:52.000Z</time>
      </trkpt>
      <trkpt lat="44.8453" lon="0.66852">
        <ele>158</ele>
        <time>2014-03-30T16:49:54.000Z</time>
      </trkpt>
      <trkpt lat="44.8453" lon="0.66852">
        <ele>158</ele>
        <time>2014-03-30T16:49:56.000Z</time>
      </trkpt>
      <trkpt lat="44.8453" lon="0.66852">
        <ele>158</ele>
        <time>2014-03-30T16:49:58.000Z</time>
      </trkpt>
      <trkpt lat="44.8453" lon="0.66852">
        <ele>158</ele>
        <time>2014-03-30T16:50:00.000Z</time>
      </trkpt>
      <trkpt lat="44.8452" lon="0.66844">
        <ele>163</ele>
        <time>2014-03-30T16:50:04.000Z</time>
      </trkpt>
      <trkpt lat="44.84513" lon="0.66838">
        <ele>165</ele>
        <time>2014-03-30T16:50:06.000Z</time>
      </trkpt>
      <trkpt lat="44.84506" lon="0.66835">
        <ele>165</ele>
        <time>2014-03-30T16:50:08.000Z</time>
      </trkpt>
      <trkpt lat="44.845" lon="0.66833">
        <ele>166</ele>
        <time>2014-03-30T16:50:10.000Z</time>
      </trkpt>
      <trkpt lat="44.84494" lon="0.66833">
        <ele>164</ele>
        <time>2014-03-30T16:50:12.000Z</time>
      </trkpt>
      <trkpt lat="44.84481" lon="0.66835">
        <ele>162</ele>
        <time>2014-03-30T16:50:14.000Z</time>
      </trkpt>
      <trkpt lat="44.84481" lon="0.66835">
        <ele>162</ele>
        <time>2014-03-30T16:50:16.000Z</time>
      </trkpt>
      <trkpt lat="44.8447" lon="0.66836">
        <ele>159</ele>
        <time>2014-03-30T16:50:18.000Z</time>
      </trkpt>
      <trkpt lat="44.8447" lon="0.66836">
        <ele>159</ele>
        <time>2014-03-30T16:50:22.000Z</time>
      </trkpt>
      <trkpt lat="44.8447" lon="0.66836">
        <ele>159</ele>
        <time>2014-03-30T16:50:24.000Z</time>
      </trkpt>
      <trkpt lat="44.8447" lon="0.66836">
        <ele>159</ele>
        <time>2014-03-30T16:50:26.000Z</time>
      </trkpt>
      <trkpt lat="44.8447" lon="0.66836">
        <ele>159</ele>
        <time>2014-03-30T16:50:32.000Z</time>
      </trkpt>
      <trkpt lat="44.84437" lon="0.66846">
        <ele>156</ele>
        <time>2014-03-30T16:50:34.000Z</time>
      </trkpt>
      <trkpt lat="44.84428" lon="0.66848">
        <ele>162</ele>
        <time>2014-03-30T16:50:38.000Z</time>
      </trkpt>
      <trkpt lat="44.84428" lon="0.66848">
        <ele>162</ele>
        <time>2014-03-30T16:50:42.000Z</time>
      </trkpt>
      <trkpt lat="44.84415" lon="0.66848">
        <ele>159</ele>
        <time>2014-03-30T16:50:44.000Z</time>
      </trkpt>
      <trkpt lat="44.84415" lon="0.66848">
        <ele>159</ele>
        <time>2014-03-30T16:50:46.000Z</time>
      </trkpt>
      <trkpt lat="44.84402" lon="0.66847">
        <ele>155</ele>
        <time>2014-03-30T16:50:50.000Z</time>
      </trkpt>
      <trkpt lat="44.84402" lon="0.66847">
        <ele>155</ele>
        <time>2014-03-30T16:50:54.000Z</time>
      </trkpt>
      <trkpt lat="44.84402" lon="0.66847">
        <ele>155</ele>
        <time>2014-03-30T16:50:56.000Z</time>
      </trkpt>
      <trkpt lat="44.84382" lon="0.66848">
        <ele>154</ele>
        <time>2014-03-30T16:51:00.000Z</time>
      </trkpt>
      <trkpt lat="44.84372" lon="0.66851">
        <ele>151</ele>
        <time>2014-03-30T16:51:04.000Z</time>
      </trkpt>
      <trkpt lat="44.84372" lon="0.66851">
        <ele>151</ele>
        <time>2014-03-30T16:51:06.000Z</time>
      </trkpt>
      <trkpt lat="44.84363" lon="0.66851">
        <ele>156</ele>
        <time>2014-03-30T16:51:08.000Z</time>
      </trkpt>
      <trkpt lat="44.84363" lon="0.66851">
        <ele>156</ele>
        <time>2014-03-30T16:51:10.000Z</time>
      </trkpt>
      <trkpt lat="44.84363" lon="0.66851">
        <ele>156</ele>
        <time>2014-03-30T16:51:12.000Z</time>
      </trkpt>
      <trkpt lat="44.8435" lon="0.6685">
        <ele>158</ele>
        <time>2014-03-30T16:51:14.000Z</time>
      </trkpt>
      <trkpt lat="44.8434" lon="0.66849">
        <ele>159</ele>
        <time>2014-03-30T16:51:18.000Z</time>
      </trkpt>
      <trkpt lat="44.8434" lon="0.66849">
        <ele>159</ele>
        <time>2014-03-30T16:51:20.000Z</time>
      </trkpt>
      <trkpt lat="44.8434" lon="0.66849">
        <ele>159</ele>
        <time>2014-03-30T16:51:22.000Z</time>
      </trkpt>
      <trkpt lat="44.8434" lon="0.66849">
        <ele>159</ele>
        <time>2014-03-30T16:51:24.000Z</time>
      </trkpt>
      <trkpt lat="44.84317" lon="0.66838">
        <ele>156</ele>
        <time>2014-03-30T16:51:28.000Z</time>
      </trkpt>
      <trkpt lat="44.8431" lon="0.66828">
        <ele>153</ele>
        <time>2014-03-30T16:51:32.000Z</time>
      </trkpt>
      <trkpt lat="44.8431" lon="0.66828">
        <ele>153</ele>
        <time>2014-03-30T16:51:34.000Z</time>
      </trkpt>
      <trkpt lat="44.8431" lon="0.66828">
        <ele>153</ele>
        <time>2014-03-30T16:51:36.000Z</time>
      </trkpt>
      <trkpt lat="44.8431" lon="0.66828">
        <ele>153</ele>
        <time>2014-03-30T16:51:38.000Z</time>
      </trkpt>
      <trkpt lat="44.8431" lon="0.66828">
        <ele>153</ele>
        <time>2014-03-30T16:51:40.000Z</time>
      </trkpt>
      <trkpt lat="44.8431" lon="0.66828">
        <ele>153</ele>
        <time>2014-03-30T16:51:42.000Z</time>
      </trkpt>
      <trkpt lat="44.8431" lon="0.66828">
        <ele>153</ele>
        <time>2014-03-30T16:51:44.000Z</time>
      </trkpt>
      <trkpt lat="44.8431" lon="0.66828">
        <ele>153</ele>
        <time>2014-03-30T16:51:46.000Z</time>
      </trkpt>
      <trkpt lat="44.8431" lon="0.66828">
        <ele>153</ele>
        <time>2014-03-30T16:51:48.000Z</time>
      </trkpt>
      <trkpt lat="44.8431" lon="0.66828">
        <ele>153</ele>
        <time>2014-03-30T16:51:50.000Z</time>
      </trkpt>
      <trkpt lat="44.84296" lon="0.6679">
        <ele>153</ele>
        <time>2014-03-30T16:52:49.000Z</time>
      </trkpt>
      <trkpt lat="44.84287" lon="0.66783">
        <ele>149</ele>
        <time>2014-03-30T16:52:53.000Z</time>
      </trkpt>
      <trkpt lat="44.84287" lon="0.66783">
        <ele>149</ele>
        <time>2014-03-30T16:52:55.000Z</time>
      </trkpt>
      <trkpt lat="44.84287" lon="0.66783">
        <ele>149</ele>
        <time>2014-03-30T16:52:57.000Z</time>
      </trkpt>
      <trkpt lat="44.84287" lon="0.66783">
        <ele>149</ele>
        <time>2014-03-30T16:52:59.000Z</time>
      </trkpt>
      <trkpt lat="44.84287" lon="0.66783">
        <ele>149</ele>
        <time>2014-03-30T16:53:01.000Z</time>
      </trkpt>
      <trkpt lat="44.84266" lon="0.66758">
        <ele>152</ele>
        <time>2014-03-30T16:53:05.000Z</time>
      </trkpt>
      <trkpt lat="44.84266" lon="0.66758">
        <ele>152</ele>
        <time>2014-03-30T16:53:09.000Z</time>
      </trkpt>
      <trkpt lat="44.84259" lon="0.66743">
        <ele>149</ele>
        <time>2014-03-30T16:53:11.000Z</time>
      </trkpt>
      <trkpt lat="44.84259" lon="0.66743">
        <ele>149</ele>
        <time>2014-03-30T16:53:13.000Z</time>
      </trkpt>
      <trkpt lat="44.84259" lon="0.66743">
        <ele>149</ele>
        <time>2014-03-30T16:53:15.000Z</time>
      </trkpt>
      <trkpt lat="44.84259" lon="0.66743">
        <ele>149</ele>
        <time>2014-03-30T16:53:17.000Z</time>
      </trkpt>
      <trkpt lat="44.8426" lon="0.66711">
        <ele>150</ele>
        <time>2014-03-30T16:53:21.000Z</time>
      </trkpt>
      <trkpt lat="44.84261" lon="0.66697">
        <ele>149</ele>
        <time>2014-03-30T16:53:25.000Z</time>
      </trkpt>
      <trkpt lat="44.84261" lon="0.66697">
        <ele>149</ele>
        <time>2014-03-30T16:53:27.000Z</time>
      </trkpt>
      <trkpt lat="44.84261" lon="0.66697">
        <ele>149</ele>
        <time>2014-03-30T16:53:29.000Z</time>
      </trkpt>
      <trkpt lat="44.84261" lon="0.66697">
        <ele>149</ele>
        <time>2014-03-30T16:53:31.000Z</time>
      </trkpt>
      <trkpt lat="44.84261" lon="0.66697">
        <ele>149</ele>
        <time>2014-03-30T16:53:33.000Z</time>
      </trkpt>
      <trkpt lat="44.84261" lon="0.66697">
        <ele>149</ele>
        <time>2014-03-30T16:53:35.000Z</time>
      </trkpt>
      <trkpt lat="44.84263" lon="0.66672">
        <ele>141</ele>
        <time>2014-03-30T16:53:39.000Z</time>
      </trkpt>
      <trkpt lat="44.84263" lon="0.66672">
        <ele>141</ele>
        <time>2014-03-30T16:53:45.000Z</time>
      </trkpt>
      <trkpt lat="44.84263" lon="0.66672">
        <ele>141</ele>
        <time>2014-03-30T16:53:47.000Z</time>
      </trkpt>
      <trkpt lat="44.84263" lon="0.66672">
        <ele>141</ele>
        <time>2014-03-30T16:53:49.000Z</time>
      </trkpt>
      <trkpt lat="44.84259" lon="0.66642">
        <ele>139</ele>
        <time>2014-03-30T16:54:17.000Z</time>
      </trkpt>
      <trkpt lat="44.84259" lon="0.66642">
        <ele>139</ele>
        <time>2014-03-30T16:54:19.000Z</time>
      </trkpt>
      <trkpt lat="44.84259" lon="0.66642">
        <ele>139</ele>
        <time>2014-03-30T16:54:21.000Z</time>
      </trkpt>
      <trkpt lat="44.84259" lon="0.66642">
        <ele>139</ele>
        <time>2014-03-30T16:54:23.000Z</time>
      </trkpt>
      <trkpt lat="44.84259" lon="0.66642">
        <ele>139</ele>
        <time>2014-03-30T16:54:25.000Z</time>
      </trkpt>
      <trkpt lat="44.84259" lon="0.66642">
        <ele>139</ele>
        <time>2014-03-30T16:54:27.000Z</time>
      </trkpt>
      <trkpt lat="44.84259" lon="0.66642">
        <ele>139</ele>
        <time>2014-03-30T16:54:29.000Z</time>
      </trkpt>
      <trkpt lat="44.84259" lon="0.66642">
        <ele>139</ele>
        <time>2014-03-30T16:54:31.000Z</time>
      </trkpt>
      <trkpt lat="44.84259" lon="0.66642">
        <ele>139</ele>
        <time>2014-03-30T16:54:33.000Z</time>
      </trkpt>
      <trkpt lat="44.84259" lon="0.66642">
        <ele>139</ele>
        <time>2014-03-30T16:54:35.000Z</time>
      </trkpt>
      <trkpt lat="44.84259" lon="0.66642">
        <ele>139</ele>
        <time>2014-03-30T16:54:37.000Z</time>
      </trkpt>
      <trkpt lat="44.84259" lon="0.66642">
        <ele>139</ele>
        <time>2014-03-30T16:54:39.000Z</time>
      </trkpt>
      <trkpt lat="44.8422" lon="0.66622">
        <ele>132</ele>
        <time>2014-03-30T16:54:45.000Z</time>
      </trkpt>
      <trkpt lat="44.84217" lon="0.66609">
        <ele>136</ele>
        <time>2014-03-30T16:54:49.000Z</time>
      </trkpt>
      <trkpt lat="44.84211" lon="0.66596">
        <ele>133</ele>
        <time>2014-03-30T16:54:55.000Z</time>
      </trkpt>
      <trkpt lat="44.84211" lon="0.66596">
        <ele>133</ele>
        <time>2014-03-30T16:54:57.000Z</time>
      </trkpt>
      <trkpt lat="44.84211" lon="0.66596">
        <ele>133</ele>
        <time>2014-03-30T16:54:59.000Z</time>
      </trkpt>
      <trkpt lat="44.84211" lon="0.66596">
        <ele>133</ele>
        <time>2014-03-30T16:55:01.000Z</time>
      </trkpt>
      <trkpt lat="44.84211" lon="0.66596">
        <ele>133</ele>
        <time>2014-03-30T16:55:03.000Z</time>
      </trkpt>
      <trkpt lat="44.84211" lon="0.66596">
        <ele>133</ele>
        <time>2014-03-30T16:55:05.000Z</time>
      </trkpt>
      <trkpt lat="44.84211" lon="0.66596">
        <ele>133</ele>
        <time>2014-03-30T16:55:07.000Z</time>
      </trkpt>
      <trkpt lat="44.84211" lon="0.66596">
        <ele>133</ele>
        <time>2014-03-30T16:55:09.000Z</time>
      </trkpt>
      <trkpt lat="44.84211" lon="0.66596">
        <ele>133</ele>
        <time>2014-03-30T16:55:11.000Z</time>
      </trkpt>
      <trkpt lat="44.84211" lon="0.66596">
        <ele>133</ele>
        <time>2014-03-30T16:55:13.000Z</time>
      </trkpt>
      <trkpt lat="44.84211" lon="0.66596">
        <ele>133</ele>
        <time>2014-03-30T16:55:15.000Z</time>
      </trkpt>
      <trkpt lat="44.84198" lon="0.66563">
        <ele>119</ele>
        <time>2014-03-30T16:55:19.000Z</time>
      </trkpt>
      <trkpt lat="44.84196" lon="0.66557">
        <ele>118</ele>
        <time>2014-03-30T16:55:27.000Z</time>
      </trkpt>
      <trkpt lat="44.84192" lon="0.66549">
        <ele>120</ele>
        <time>2014-03-30T16:55:31.000Z</time>
      </trkpt>
      <trkpt lat="44.84192" lon="0.66549">
        <ele>120</ele>
        <time>2014-03-30T16:55:33.000Z</time>
      </trkpt>
      <trkpt lat="44.84192" lon="0.66549">
        <ele>120</ele>
        <time>2014-03-30T16:55:35.000Z</time>
      </trkpt>
      <trkpt lat="44.84186" lon="0.66535">
        <ele>114</ele>
        <time>2014-03-30T16:55:41.000Z</time>
      </trkpt>
      <trkpt lat="44.84182" lon="0.66527">
        <ele>113</ele>
        <time>2014-03-30T16:55:43.000Z</time>
      </trkpt>
      <trkpt lat="44.84182" lon="0.66527">
        <ele>113</ele>
        <time>2014-03-30T16:55:45.000Z</time>
      </trkpt>
      <trkpt lat="44.84182" lon="0.66527">
        <ele>113</ele>
        <time>2014-03-30T16:55:47.000Z</time>
      </trkpt>
      <trkpt lat="44.84182" lon="0.66527">
        <ele>113</ele>
        <time>2014-03-30T16:55:49.000Z</time>
      </trkpt>
      <trkpt lat="44.84181" lon="0.66518">
        <ele>109</ele>
        <time>2014-03-30T16:55:53.000Z</time>
      </trkpt>
      <trkpt lat="44.84181" lon="0.66518">
        <ele>109</ele>
        <time>2014-03-30T16:55:55.000Z</time>
      </trkpt>
      <trkpt lat="44.84181" lon="0.66518">
        <ele>109</ele>
        <time>2014-03-30T16:55:57.000Z</time>
      </trkpt>
      <trkpt lat="44.84181" lon="0.66518">
        <ele>109</ele>
        <time>2014-03-30T16:55:59.000Z</time>
      </trkpt>
      <trkpt lat="44.84181" lon="0.66518">
        <ele>109</ele>
        <time>2014-03-30T16:56:01.000Z</time>
      </trkpt>
      <trkpt lat="44.84181" lon="0.66518">
        <ele>109</ele>
        <time>2014-03-30T16:56:03.000Z</time>
      </trkpt>
      <trkpt lat="44.84182" lon="0.66504">
        <ele>111</ele>
        <time>2014-03-30T16:56:05.000Z</time>
      </trkpt>
      <trkpt lat="44.84182" lon="0.66495">
        <ele>108</ele>
        <time>2014-03-30T16:56:07.000Z</time>
      </trkpt>
      <trkpt lat="44.84182" lon="0.66495">
        <ele>108</ele>
        <time>2014-03-30T16:56:09.000Z</time>
      </trkpt>
      <trkpt lat="44.84184" lon="0.66489">
        <ele>108</ele>
        <time>2014-03-30T16:56:11.000Z</time>
      </trkpt>
      <trkpt lat="44.84184" lon="0.66489">
        <ele>108</ele>
        <time>2014-03-30T16:56:13.000Z</time>
      </trkpt>
      <trkpt lat="44.84184" lon="0.66489">
        <ele>108</ele>
        <time>2014-03-30T16:56:15.000Z</time>
      </trkpt>
      <trkpt lat="44.84188" lon="0.66483">
        <ele>102</ele>
        <time>2014-03-30T16:56:17.000Z</time>
      </trkpt>
      <trkpt lat="44.84188" lon="0.66483">
        <ele>102</ele>
        <time>2014-03-30T16:56:19.000Z</time>
      </trkpt>
      <trkpt lat="44.84187" lon="0.66475">
        <ele>103</ele>
        <time>2014-03-30T16:56:21.000Z</time>
      </trkpt>
      <trkpt lat="44.84181" lon="0.66474">
        <ele>101</ele>
        <time>2014-03-30T16:56:29.000Z</time>
      </trkpt>
      <trkpt lat="44.84176" lon="0.66475">
        <ele>100</ele>
        <time>2014-03-30T16:56:31.000Z</time>
      </trkpt>
      <trkpt lat="44.84171" lon="0.66473">
        <ele>99</ele>
        <time>2014-03-30T16:56:33.000Z</time>
      </trkpt>
      <trkpt lat="44.84171" lon="0.66473">
        <ele>99</ele>
        <time>2014-03-30T16:56:35.000Z</time>
      </trkpt>
      <trkpt lat="44.84171" lon="0.66473">
        <ele>99</ele>
        <time>2014-03-30T16:56:37.000Z</time>
      </trkpt>
      <trkpt lat="44.84171" lon="0.66473">
        <ele>99</ele>
        <time>2014-03-30T16:56:39.000Z</time>
      </trkpt>
      <trkpt lat="44.84171" lon="0.66473">
        <ele>99</ele>
        <time>2014-03-30T16:56:41.000Z</time>
      </trkpt>
      <trkpt lat="44.84163" lon="0.6646">
        <ele>97</ele>
        <time>2014-03-30T16:56:45.000Z</time>
      </trkpt>
      <trkpt lat="44.84159" lon="0.66451">
        <ele>93</ele>
        <time>2014-03-30T16:56:47.000Z</time>
      </trkpt>
      <trkpt lat="44.84156" lon="0.66441">
        <ele>93</ele>
        <time>2014-03-30T16:56:49.000Z</time>
      </trkpt>
      <trkpt lat="44.84155" lon="0.66433">
        <ele>92</ele>
        <time>2014-03-30T16:56:51.000Z</time>
      </trkpt>
      <trkpt lat="44.84155" lon="0.66426">
        <ele>91</ele>
        <time>2014-03-30T16:56:53.000Z</time>
      </trkpt>
      <trkpt lat="44.84156" lon="0.66412">
        <ele>90</ele>
        <time>2014-03-30T16:56:55.000Z</time>
      </trkpt>
      <trkpt lat="44.84156" lon="0.66412">
        <ele>90</ele>
        <time>2014-03-30T16:56:57.000Z</time>
      </trkpt>
      <trkpt lat="44.84156" lon="0.66412">
        <ele>90</ele>
        <time>2014-03-30T16:56:59.000Z</time>
      </trkpt>
      <trkpt lat="44.84156" lon="0.66412">
        <ele>90</ele>
        <time>2014-03-30T16:57:01.000Z</time>
      </trkpt>
      <trkpt lat="44.84156" lon="0.66412">
        <ele>90</ele>
        <time>2014-03-30T16:57:03.000Z</time>
      </trkpt>
      <trkpt lat="44.84156" lon="0.66412">
        <ele>90</ele>
        <time>2014-03-30T16:57:05.000Z</time>
      </trkpt>
      <trkpt lat="44.84155" lon="0.664">
        <ele>93</ele>
        <time>2014-03-30T16:57:11.000Z</time>
      </trkpt>
      <trkpt lat="44.84155" lon="0.66386">
        <ele>94</ele>
        <time>2014-03-30T16:57:17.000Z</time>
      </trkpt>
      <trkpt lat="44.84155" lon="0.6637">
        <ele>95</ele>
        <time>2014-03-30T16:57:23.000Z</time>
      </trkpt>
      <trkpt lat="44.84156" lon="0.66352">
        <ele>96</ele>
        <time>2014-03-30T16:57:29.000Z</time>
      </trkpt>
      <trkpt lat="44.84156" lon="0.66352">
        <ele>96</ele>
        <time>2014-03-30T16:57:31.000Z</time>
      </trkpt>
      <trkpt lat="44.84156" lon="0.6634">
        <ele>97</ele>
        <time>2014-03-30T16:57:33.000Z</time>
      </trkpt>
      <trkpt lat="44.84158" lon="0.66323">
        <ele>97</ele>
        <time>2014-03-30T16:57:39.000Z</time>
      </trkpt>
      <trkpt lat="44.84158" lon="0.66323">
        <ele>97</ele>
        <time>2014-03-30T16:57:41.000Z</time>
      </trkpt>
      <trkpt lat="44.84158" lon="0.66323">
        <ele>97</ele>
        <time>2014-03-30T16:57:43.000Z</time>
      </trkpt>
      <trkpt lat="44.84158" lon="0.66323">
        <ele>97</ele>
        <time>2014-03-30T16:57:45.000Z</time>
      </trkpt>
      <trkpt lat="44.84158" lon="0.66323">
        <ele>97</ele>
        <time>2014-03-30T16:57:47.000Z</time>
      </trkpt>
      <trkpt lat="44.84158" lon="0.66287">
        <ele>92</ele>
        <time>2014-03-30T16:57:53.000Z</time>
      </trkpt>
      <trkpt lat="44.84159" lon="0.66269">
        <ele>92</ele>
        <time>2014-03-30T16:57:59.000Z</time>
      </trkpt>
      <trkpt lat="44.84161" lon="0.66255">
        <ele>94</ele>
        <time>2014-03-30T16:58:03.000Z</time>
      </trkpt>
      <trkpt lat="44.84161" lon="0.66255">
        <ele>94</ele>
        <time>2014-03-30T16:58:05.000Z</time>
      </trkpt>
      <trkpt lat="44.84161" lon="0.66255">
        <ele>94</ele>
        <time>2014-03-30T16:58:07.000Z</time>
      </trkpt>
      <trkpt lat="44.84161" lon="0.66255">
        <ele>94</ele>
        <time>2014-03-30T16:58:09.000Z</time>
      </trkpt>
      <trkpt lat="44.84161" lon="0.66229">
        <ele>94</ele>
        <time>2014-03-30T16:58:11.000Z</time>
      </trkpt>
      <trkpt lat="44.84161" lon="0.66219">
        <ele>93</ele>
        <time>2014-03-30T16:58:17.000Z</time>
      </trkpt>
      <trkpt lat="44.84159" lon="0.66211">
        <ele>94</ele>
        <time>2014-03-30T16:58:19.000Z</time>
      </trkpt>
      <trkpt lat="44.84159" lon="0.66203">
        <ele>94</ele>
        <time>2014-03-30T16:58:21.000Z</time>
      </trkpt>
      <trkpt lat="44.84159" lon="0.66196">
        <ele>94</ele>
        <time>2014-03-30T16:58:23.000Z</time>
      </trkpt>
      <trkpt lat="44.84159" lon="0.66196">
        <ele>94</ele>
        <time>2014-03-30T16:58:25.000Z</time>
      </trkpt>
      <trkpt lat="44.84159" lon="0.66196">
        <ele>94</ele>
        <time>2014-03-30T16:58:27.000Z</time>
      </trkpt>
      <trkpt lat="44.84159" lon="0.66196">
        <ele>94</ele>
        <time>2014-03-30T16:58:29.000Z</time>
      </trkpt>
      <trkpt lat="44.84159" lon="0.66196">
        <ele>94</ele>
        <time>2014-03-30T16:58:31.000Z</time>
      </trkpt>
      <trkpt lat="44.84159" lon="0.66196">
        <ele>94</ele>
        <time>2014-03-30T16:58:33.000Z</time>
      </trkpt>
      <trkpt lat="44.84159" lon="0.66196">
        <ele>94</ele>
        <time>2014-03-30T16:58:35.000Z</time>
      </trkpt>
      <trkpt lat="44.84159" lon="0.66196">
        <ele>94</ele>
        <time>2014-03-30T16:58:37.000Z</time>
      </trkpt>
      <trkpt lat="44.84159" lon="0.66196">
        <ele>94</ele>
        <time>2014-03-30T16:58:39.000Z</time>
      </trkpt>
      <trkpt lat="44.84159" lon="0.6616">
        <ele>97</ele>
        <time>2014-03-30T16:58:45.000Z</time>
      </trkpt>
      <trkpt lat="44.84159" lon="0.66139">
        <ele>97</ele>
        <time>2014-03-30T16:58:47.000Z</time>
      </trkpt>
      <trkpt lat="44.84159" lon="0.66126">
        <ele>96</ele>
        <time>2014-03-30T16:58:49.000Z</time>
      </trkpt>
      <trkpt lat="44.84159" lon="0.66116">
        <ele>96</ele>
        <time>2014-03-30T16:58:51.000Z</time>
      </trkpt>
      <trkpt lat="44.84159" lon="0.66109">
        <ele>95</ele>
        <time>2014-03-30T16:58:53.000Z</time>
      </trkpt>
      <trkpt lat="44.84159" lon="0.66109">
        <ele>95</ele>
        <time>2014-03-30T16:58:55.000Z</time>
      </trkpt>
      <trkpt lat="44.84159" lon="0.66109">
        <ele>95</ele>
        <time>2014-03-30T16:58:57.000Z</time>
      </trkpt>
      <trkpt lat="44.84159" lon="0.66109">
        <ele>95</ele>
        <time>2014-03-30T16:58:59.000Z</time>
      </trkpt>
      <trkpt lat="44.84159" lon="0.66109">
        <ele>95</ele>
        <time>2014-03-30T16:59:01.000Z</time>
      </trkpt>
      <trkpt lat="44.84159" lon="0.66109">
        <ele>95</ele>
        <time>2014-03-30T16:59:03.000Z</time>
      </trkpt>
      <trkpt lat="44.84159" lon="0.66109">
        <ele>95</ele>
        <time>2014-03-30T16:59:05.000Z</time>
      </trkpt>
      <trkpt lat="44.84159" lon="0.66109">
        <ele>95</ele>
        <time>2014-03-30T16:59:07.000Z</time>
      </trkpt>
      <trkpt lat="44.84159" lon="0.66109">
        <ele>95</ele>
        <time>2014-03-30T16:59:09.000Z</time>
      </trkpt>
      <trkpt lat="44.84159" lon="0.66109">
        <ele>95</ele>
        <time>2014-03-30T16:59:11.000Z</time>
      </trkpt>
      <trkpt lat="44.84159" lon="0.66109">
        <ele>95</ele>
        <time>2014-03-30T16:59:13.000Z</time>
      </trkpt>
      <trkpt lat="44.84159" lon="0.66109">
        <ele>95</ele>
        <time>2014-03-30T16:59:15.000Z</time>
      </trkpt>
      <trkpt lat="44.84159" lon="0.66109">
        <ele>95</ele>
        <time>2014-03-30T16:59:17.000Z</time>
      </trkpt>
      <trkpt lat="44.84159" lon="0.66109">
        <ele>95</ele>
        <time>2014-03-30T16:59:19.000Z</time>
      </trkpt>
      <trkpt lat="44.84137" lon="0.66074">
        <ele>96</ele>
        <time>2014-03-30T16:59:25.000Z</time>
      </trkpt>
      <trkpt lat="44.84132" lon="0.66093">
        <ele>94</ele>
        <time>2014-03-30T16:59:39.000Z</time>
      </trkpt>
      <trkpt lat="44.84131" lon="0.66108">
        <ele>93</ele>
        <time>2014-03-30T16:59:45.000Z</time>
      </trkpt>
      <trkpt lat="44.8413" lon="0.66122">
        <ele>92</ele>
        <time>2014-03-30T16:59:49.000Z</time>
      </trkpt>
      <trkpt lat="44.84131" lon="0.66135">
        <ele>92</ele>
        <time>2014-03-30T16:59:53.000Z</time>
      </trkpt>
      <trkpt lat="44.84131" lon="0.66148">
        <ele>93</ele>
        <time>2014-03-30T16:59:57.000Z</time>
      </trkpt>
      <trkpt lat="44.84131" lon="0.66148">
        <ele>93</ele>
        <time>2014-03-30T17:00:01.000Z</time>
      </trkpt>
      <trkpt lat="44.84131" lon="0.66148">
        <ele>93</ele>
        <time>2014-03-30T17:00:03.000Z</time>
      </trkpt>
      <trkpt lat="44.84131" lon="0.66148">
        <ele>93</ele>
        <time>2014-03-30T17:00:05.000Z</time>
      </trkpt>
      <trkpt lat="44.84131" lon="0.66148">
        <ele>93</ele>
        <time>2014-03-30T17:00:07.000Z</time>
      </trkpt>
      <trkpt lat="44.84131" lon="0.66148">
        <ele>93</ele>
        <time>2014-03-30T17:00:09.000Z</time>
      </trkpt>
      <trkpt lat="44.84131" lon="0.66148">
        <ele>93</ele>
        <time>2014-03-30T17:00:11.000Z</time>
      </trkpt>
      <trkpt lat="44.84131" lon="0.66148">
        <ele>93</ele>
        <time>2014-03-30T17:00:13.000Z</time>
      </trkpt>
      <trkpt lat="44.84131" lon="0.66148">
        <ele>93</ele>
        <time>2014-03-30T17:00:15.000Z</time>
      </trkpt>
      <trkpt lat="44.84131" lon="0.66148">
        <ele>93</ele>
        <time>2014-03-30T17:00:17.000Z</time>
      </trkpt>
      <trkpt lat="44.84131" lon="0.66148">
        <ele>93</ele>
        <time>2014-03-30T17:00:19.000Z</time>
      </trkpt>
      <trkpt lat="44.84131" lon="0.66148">
        <ele>93</ele>
        <time>2014-03-30T17:00:21.000Z</time>
      </trkpt>
      <trkpt lat="44.84131" lon="0.66148">
        <ele>93</ele>
        <time>2014-03-30T17:00:23.000Z</time>
      </trkpt>
      <trkpt lat="44.84131" lon="0.66148">
        <ele>93</ele>
        <time>2014-03-30T17:00:25.000Z</time>
      </trkpt>
      <trkpt lat="44.8413" lon="0.66199">
        <ele>91</ele>
        <time>2014-03-30T17:00:29.000Z</time>
      </trkpt>
      <trkpt lat="44.8413" lon="0.66228">
        <ele>91</ele>
        <time>2014-03-30T17:00:31.000Z</time>
      </trkpt>
      <trkpt lat="44.84129" lon="0.66246">
        <ele>91</ele>
        <time>2014-03-30T17:00:33.000Z</time>
      </trkpt>
      <trkpt lat="44.84129" lon="0.66257">
        <ele>89</ele>
        <time>2014-03-30T17:00:35.000Z</time>
      </trkpt>
      <trkpt lat="44.84129" lon="0.66266">
        <ele>89</ele>
        <time>2014-03-30T17:00:37.000Z</time>
      </trkpt>
      <trkpt lat="44.84131" lon="0.66279">
        <ele>89</ele>
        <time>2014-03-30T17:00:39.000Z</time>
      </trkpt>
      <trkpt lat="44.84131" lon="0.66297">
        <ele>90</ele>
        <time>2014-03-30T17:00:45.000Z</time>
      </trkpt>
      <trkpt lat="44.84131" lon="0.66297">
        <ele>90</ele>
        <time>2014-03-30T17:00:47.000Z</time>
      </trkpt>
      <trkpt lat="44.84132" lon="0.66309">
        <ele>90</ele>
        <time>2014-03-30T17:00:49.000Z</time>
      </trkpt>
      <trkpt lat="44.84132" lon="0.66309">
        <ele>90</ele>
        <time>2014-03-30T17:00:51.000Z</time>
      </trkpt>
      <trkpt lat="44.84132" lon="0.66309">
        <ele>90</ele>
        <time>2014-03-30T17:00:53.000Z</time>
      </trkpt>
      <trkpt lat="44.84132" lon="0.66309">
        <ele>90</ele>
        <time>2014-03-30T17:00:55.000Z</time>
      </trkpt>
      <trkpt lat="44.84132" lon="0.66309">
        <ele>90</ele>
        <time>2014-03-30T17:00:57.000Z</time>
      </trkpt>
      <trkpt lat="44.84132" lon="0.66309">
        <ele>90</ele>
        <time>2014-03-30T17:00:59.000Z</time>
      </trkpt>
      <trkpt lat="44.84132" lon="0.66309">
        <ele>90</ele>
        <time>2014-03-30T17:01:01.000Z</time>
      </trkpt>
      <trkpt lat="44.8413" lon="0.66362">
        <ele>91</ele>
        <time>2014-03-30T17:01:07.000Z</time>
      </trkpt>
      <trkpt lat="44.84131" lon="0.6638">
        <ele>91</ele>
        <time>2014-03-30T17:01:13.000Z</time>
      </trkpt>
      <trkpt lat="44.84131" lon="0.6638">
        <ele>91</ele>
        <time>2014-03-30T17:01:19.000Z</time>
      </trkpt>
      <trkpt lat="44.84131" lon="0.6638">
        <ele>91</ele>
        <time>2014-03-30T17:01:21.000Z</time>
      </trkpt>
      <trkpt lat="44.84131" lon="0.6638">
        <ele>91</ele>
        <time>2014-03-30T17:01:23.000Z</time>
      </trkpt>
      <trkpt lat="44.84131" lon="0.6638">
        <ele>91</ele>
        <time>2014-03-30T17:01:27.000Z</time>
      </trkpt>
      <trkpt lat="44.84131" lon="0.6638">
        <ele>91</ele>
        <time>2014-03-30T17:01:29.000Z</time>
      </trkpt>
      <trkpt lat="44.84129" lon="0.66444">
        <ele>93</ele>
        <time>2014-03-30T17:01:35.000Z</time>
      </trkpt>
      <trkpt lat="44.84129" lon="0.66444">
        <ele>93</ele>
        <time>2014-03-30T17:01:37.000Z</time>
      </trkpt>
      <trkpt lat="44.84128" lon="0.6646">
        <ele>96</ele>
        <time>2014-03-30T17:01:43.000Z</time>
      </trkpt>
      <trkpt lat="44.84129" lon="0.66475">
        <ele>95</ele>
        <time>2014-03-30T17:01:47.000Z</time>
      </trkpt>
      <trkpt lat="44.8413" lon="0.66493">
        <ele>95</ele>
        <time>2014-03-30T17:01:53.000Z</time>
      </trkpt>
      <trkpt lat="44.8413" lon="0.66493">
        <ele>95</ele>
        <time>2014-03-30T17:01:59.000Z</time>
      </trkpt>
      <trkpt lat="44.8413" lon="0.66493">
        <ele>95</ele>
        <time>2014-03-30T17:02:01.000Z</time>
      </trkpt>
      <trkpt lat="44.8413" lon="0.66493">
        <ele>95</ele>
        <time>2014-03-30T17:02:03.000Z</time>
      </trkpt>
      <trkpt lat="44.8413" lon="0.66512">
        <ele>95</ele>
        <time>2014-03-30T17:02:07.000Z</time>
      </trkpt>
      <trkpt lat="44.84131" lon="0.66525">
        <ele>93</ele>
        <time>2014-03-30T17:02:09.000Z</time>
      </trkpt>
      <trkpt lat="44.84132" lon="0.66535">
        <ele>92</ele>
        <time>2014-03-30T17:02:11.000Z</time>
      </trkpt>
      <trkpt lat="44.84131" lon="0.66543">
        <ele>92</ele>
        <time>2014-03-30T17:02:13.000Z</time>
      </trkpt>
      <trkpt lat="44.8413" lon="0.66553">
        <ele>89</ele>
        <time>2014-03-30T17:02:17.000Z</time>
      </trkpt>
      <trkpt lat="44.8413" lon="0.66553">
        <ele>89</ele>
        <time>2014-03-30T17:02:19.000Z</time>
      </trkpt>
      <trkpt lat="44.8413" lon="0.66553">
        <ele>89</ele>
        <time>2014-03-30T17:02:21.000Z</time>
      </trkpt>
      <trkpt lat="44.8413" lon="0.66553">
        <ele>89</ele>
        <time>2014-03-30T17:02:23.000Z</time>
      </trkpt>
      <trkpt lat="44.8413" lon="0.66553">
        <ele>89</ele>
        <time>2014-03-30T17:02:25.000Z</time>
      </trkpt>
      <trkpt lat="44.84131" lon="0.66573">
        <ele>90</ele>
        <time>2014-03-30T17:02:29.000Z</time>
      </trkpt>
      <trkpt lat="44.84132" lon="0.66586">
        <ele>89</ele>
        <time>2014-03-30T17:02:31.000Z</time>
      </trkpt>
      <trkpt lat="44.84132" lon="0.66594">
        <ele>88</ele>
        <time>2014-03-30T17:02:33.000Z</time>
      </trkpt>
      <trkpt lat="44.84132" lon="0.66594">
        <ele>88</ele>
        <time>2014-03-30T17:02:35.000Z</time>
      </trkpt>
      <trkpt lat="44.84132" lon="0.66594">
        <ele>88</ele>
        <time>2014-03-30T17:02:37.000Z</time>
      </trkpt>
      <trkpt lat="44.84132" lon="0.66594">
        <ele>88</ele>
        <time>2014-03-30T17:02:39.000Z</time>
      </trkpt>
      <trkpt lat="44.84131" lon="0.66613">
        <ele>88</ele>
        <time>2014-03-30T17:02:45.000Z</time>
      </trkpt>
      <trkpt lat="44.84131" lon="0.66613">
        <ele>88</ele>
        <time>2014-03-30T17:02:47.000Z</time>
      </trkpt>
      <trkpt lat="44.84131" lon="0.66613">
        <ele>88</ele>
        <time>2014-03-30T17:02:49.000Z</time>
      </trkpt>
      <trkpt lat="44.84131" lon="0.66613">
        <ele>88</ele>
        <time>2014-03-30T17:02:51.000Z</time>
      </trkpt>
      <trkpt lat="44.8413" lon="0.66637">
        <ele>87</ele>
        <time>2014-03-30T17:02:55.000Z</time>
      </trkpt>
      <trkpt lat="44.8413" lon="0.66652">
        <ele>86</ele>
        <time>2014-03-30T17:02:57.000Z</time>
      </trkpt>
      <trkpt lat="44.84129" lon="0.66662">
        <ele>88</ele>
        <time>2014-03-30T17:02:59.000Z</time>
      </trkpt>
      <trkpt lat="44.84128" lon="0.6667">
        <ele>89</ele>
        <time>2014-03-30T17:03:01.000Z</time>
      </trkpt>
      <trkpt lat="44.84128" lon="0.6667">
        <ele>89</ele>
        <time>2014-03-30T17:03:03.000Z</time>
      </trkpt>
      <trkpt lat="44.84128" lon="0.6667">
        <ele>89</ele>
        <time>2014-03-30T17:03:05.000Z</time>
      </trkpt>
      <trkpt lat="44.84128" lon="0.6667">
        <ele>89</ele>
        <time>2014-03-30T17:03:13.000Z</time>
      </trkpt>
      <trkpt lat="44.84126" lon="0.66694">
        <ele>90</ele>
        <time>2014-03-30T17:03:19.000Z</time>
      </trkpt>
      <trkpt lat="44.84124" lon="0.66708">
        <ele>91</ele>
        <time>2014-03-30T17:03:21.000Z</time>
      </trkpt>
      <trkpt lat="44.84122" lon="0.66719">
        <ele>90</ele>
        <time>2014-03-30T17:03:23.000Z</time>
      </trkpt>
      <trkpt lat="44.84122" lon="0.66728">
        <ele>90</ele>
        <time>2014-03-30T17:03:25.000Z</time>
      </trkpt>
      <trkpt lat="44.84121" lon="0.66734">
        <ele>92</ele>
        <time>2014-03-30T17:03:27.000Z</time>
      </trkpt>
      <trkpt lat="44.84116" lon="0.66749">
        <ele>93</ele>
        <time>2014-03-30T17:03:31.000Z</time>
      </trkpt>
      <trkpt lat="44.84116" lon="0.66749">
        <ele>93</ele>
        <time>2014-03-30T17:03:33.000Z</time>
      </trkpt>
      <trkpt lat="44.84116" lon="0.66749">
        <ele>93</ele>
        <time>2014-03-30T17:03:35.000Z</time>
      </trkpt>
      <trkpt lat="44.84112" lon="0.66774">
        <ele>93</ele>
        <time>2014-03-30T17:03:39.000Z</time>
      </trkpt>
      <trkpt lat="44.84108" lon="0.66789">
        <ele>92</ele>
        <time>2014-03-30T17:03:45.000Z</time>
      </trkpt>
      <trkpt lat="44.84108" lon="0.66789">
        <ele>92</ele>
        <time>2014-03-30T17:03:47.000Z</time>
      </trkpt>
      <trkpt lat="44.84107" lon="0.66805">
        <ele>90</ele>
        <time>2014-03-30T17:03:51.000Z</time>
      </trkpt>
      <trkpt lat="44.84107" lon="0.66805">
        <ele>90</ele>
        <time>2014-03-30T17:03:53.000Z</time>
      </trkpt>
      <trkpt lat="44.84107" lon="0.66805">
        <ele>90</ele>
        <time>2014-03-30T17:03:55.000Z</time>
      </trkpt>
      <trkpt lat="44.84103" lon="0.66822">
        <ele>88</ele>
        <time>2014-03-30T17:03:57.000Z</time>
      </trkpt>
      <trkpt lat="44.84103" lon="0.66822">
        <ele>88</ele>
        <time>2014-03-30T17:04:03.000Z</time>
      </trkpt>
      <trkpt lat="44.84103" lon="0.66822">
        <ele>88</ele>
        <time>2014-03-30T17:04:09.000Z</time>
      </trkpt>
      <trkpt lat="44.84103" lon="0.66822">
        <ele>88</ele>
        <time>2014-03-30T17:04:11.000Z</time>
      </trkpt>
      <trkpt lat="44.84103" lon="0.66822">
        <ele>88</ele>
        <time>2014-03-30T17:04:19.000Z</time>
      </trkpt>
      <trkpt lat="44.84091" lon="0.66881">
        <ele>93</ele>
        <time>2014-03-30T17:04:21.000Z</time>
      </trkpt>
      <trkpt lat="44.84091" lon="0.66881">
        <ele>93</ele>
        <time>2014-03-30T17:04:23.000Z</time>
      </trkpt>
      <trkpt lat="44.84091" lon="0.66881">
        <ele>93</ele>
        <time>2014-03-30T17:04:25.000Z</time>
      </trkpt>
      <trkpt lat="44.84091" lon="0.66881">
        <ele>93</ele>
        <time>2014-03-30T17:04:27.000Z</time>
      </trkpt>
      <trkpt lat="44.84088" lon="0.66912">
        <ele>93</ele>
        <time>2014-03-30T17:04:33.000Z</time>
      </trkpt>
      <trkpt lat="44.84088" lon="0.66912">
        <ele>93</ele>
        <time>2014-03-30T17:04:35.000Z</time>
      </trkpt>
      <trkpt lat="44.84088" lon="0.66912">
        <ele>93</ele>
        <time>2014-03-30T17:04:37.000Z</time>
      </trkpt>
      <trkpt lat="44.84088" lon="0.66912">
        <ele>93</ele>
        <time>2014-03-30T17:04:39.000Z</time>
      </trkpt>
      <trkpt lat="44.84088" lon="0.66912">
        <ele>93</ele>
        <time>2014-03-30T17:04:41.000Z</time>
      </trkpt>
      <trkpt lat="44.84082" lon="0.66928">
        <ele>90</ele>
        <time>2014-03-30T17:04:45.000Z</time>
      </trkpt>
      <trkpt lat="44.8408" lon="0.66939">
        <ele>88</ele>
        <time>2014-03-30T17:04:47.000Z</time>
      </trkpt>
      <trkpt lat="44.84077" lon="0.66946">
        <ele>89</ele>
        <time>2014-03-30T17:04:49.000Z</time>
      </trkpt>
      <trkpt lat="44.84077" lon="0.66946">
        <ele>89</ele>
        <time>2014-03-30T17:04:51.000Z</time>
      </trkpt>
      <trkpt lat="44.84077" lon="0.66946">
        <ele>89</ele>
        <time>2014-03-30T17:04:53.000Z</time>
      </trkpt>
      <trkpt lat="44.84077" lon="0.66946">
        <ele>89</ele>
        <time>2014-03-30T17:04:55.000Z</time>
      </trkpt>
      <trkpt lat="44.84077" lon="0.66946">
        <ele>89</ele>
        <time>2014-03-30T17:04:57.000Z</time>
      </trkpt>
      <trkpt lat="44.84073" lon="0.66965">
        <ele>90</ele>
        <time>2014-03-30T17:05:01.000Z</time>
      </trkpt>
      <trkpt lat="44.8407" lon="0.66977">
        <ele>90</ele>
        <time>2014-03-30T17:05:03.000Z</time>
      </trkpt>
      <trkpt lat="44.8407" lon="0.66986">
        <ele>90</ele>
        <time>2014-03-30T17:05:05.000Z</time>
      </trkpt>
      <trkpt lat="44.84069" lon="0.66994">
        <ele>92</ele>
        <time>2014-03-30T17:05:07.000Z</time>
      </trkpt>
      <trkpt lat="44.84068" lon="0.67">
        <ele>93</ele>
        <time>2014-03-30T17:05:09.000Z</time>
      </trkpt>
      <trkpt lat="44.84063" lon="0.67012">
        <ele>91</ele>
        <time>2014-03-30T17:05:11.000Z</time>
      </trkpt>
      <trkpt lat="44.84055" lon="0.67022">
        <ele>86</ele>
        <time>2014-03-30T17:05:15.000Z</time>
      </trkpt>
      <trkpt lat="44.84055" lon="0.67022">
        <ele>86</ele>
        <time>2014-03-30T17:05:19.000Z</time>
      </trkpt>
      <trkpt lat="44.84055" lon="0.67022">
        <ele>86</ele>
        <time>2014-03-30T17:05:21.000Z</time>
      </trkpt>
      <trkpt lat="44.84055" lon="0.67022">
        <ele>86</ele>
        <time>2014-03-30T17:05:23.000Z</time>
      </trkpt>
      <trkpt lat="44.84055" lon="0.67022">
        <ele>86</ele>
        <time>2014-03-30T17:05:25.000Z</time>
      </trkpt>
      <trkpt lat="44.84055" lon="0.67022">
        <ele>86</ele>
        <time>2014-03-30T17:05:27.000Z</time>
      </trkpt>
      <trkpt lat="44.84055" lon="0.67022">
        <ele>86</ele>
        <time>2014-03-30T17:05:29.000Z</time>
      </trkpt>
      <trkpt lat="44.84055" lon="0.67022">
        <ele>86</ele>
        <time>2014-03-30T17:05:31.000Z</time>
      </trkpt>
      <trkpt lat="44.84055" lon="0.67022">
        <ele>86</ele>
        <time>2014-03-30T17:05:33.000Z</time>
      </trkpt>
      <trkpt lat="44.84055" lon="0.67022">
        <ele>86</ele>
        <time>2014-03-30T17:05:35.000Z</time>
      </trkpt>
      <trkpt lat="44.84055" lon="0.67022">
        <ele>86</ele>
        <time>2014-03-30T17:05:37.000Z</time>
      </trkpt>
      <trkpt lat="44.84035" lon="0.67092">
        <ele>90</ele>
        <time>2014-03-30T17:05:41.000Z</time>
      </trkpt>
      <trkpt lat="44.84031" lon="0.67109">
        <ele>94</ele>
        <time>2014-03-30T17:05:47.000Z</time>
      </trkpt>
      <trkpt lat="44.84025" lon="0.67118">
        <ele>93</ele>
        <time>2014-03-30T17:05:51.000Z</time>
      </trkpt>
      <trkpt lat="44.84023" lon="0.67134">
        <ele>90</ele>
        <time>2014-03-30T17:05:57.000Z</time>
      </trkpt>
      <trkpt lat="44.84023" lon="0.67134">
        <ele>90</ele>
        <time>2014-03-30T17:05:59.000Z</time>
      </trkpt>
      <trkpt lat="44.84023" lon="0.67134">
        <ele>90</ele>
        <time>2014-03-30T17:06:01.000Z</time>
      </trkpt>
      <trkpt lat="44.84023" lon="0.67134">
        <ele>90</ele>
        <time>2014-03-30T17:06:03.000Z</time>
      </trkpt>
      <trkpt lat="44.84023" lon="0.67134">
        <ele>90</ele>
        <time>2014-03-30T17:06:05.000Z</time>
      </trkpt>
      <trkpt lat="44.84023" lon="0.67134">
        <ele>90</ele>
        <time>2014-03-30T17:06:07.000Z</time>
      </trkpt>
      <trkpt lat="44.8401" lon="0.67175">
        <ele>90</ele>
        <time>2014-03-30T17:06:11.000Z</time>
      </trkpt>
      <trkpt lat="44.84007" lon="0.67188">
        <ele>92</ele>
        <time>2014-03-30T17:06:17.000Z</time>
      </trkpt>
      <trkpt lat="44.84007" lon="0.67188">
        <ele>92</ele>
        <time>2014-03-30T17:06:19.000Z</time>
      </trkpt>
      <trkpt lat="44.84007" lon="0.67188">
        <ele>92</ele>
        <time>2014-03-30T17:06:21.000Z</time>
      </trkpt>
      <trkpt lat="44.84007" lon="0.67188">
        <ele>92</ele>
        <time>2014-03-30T17:06:23.000Z</time>
      </trkpt>
      <trkpt lat="44.84007" lon="0.67188">
        <ele>92</ele>
        <time>2014-03-30T17:06:25.000Z</time>
      </trkpt>
      <trkpt lat="44.84007" lon="0.67188">
        <ele>92</ele>
        <time>2014-03-30T17:06:29.000Z</time>
      </trkpt>
      <trkpt lat="44.84007" lon="0.67188">
        <ele>92</ele>
        <time>2014-03-30T17:06:31.000Z</time>
      </trkpt>
      <trkpt lat="44.84007" lon="0.67188">
        <ele>92</ele>
        <time>2014-03-30T17:06:33.000Z</time>
      </trkpt>
      <trkpt lat="44.83997" lon="0.67214">
        <ele>89</ele>
        <time>2014-03-30T17:06:37.000Z</time>
      </trkpt>
      <trkpt lat="44.83997" lon="0.67214">
        <ele>89</ele>
        <time>2014-03-30T17:06:39.000Z</time>
      </trkpt>
      <trkpt lat="44.83989" lon="0.67237">
        <ele>89</ele>
        <time>2014-03-30T17:06:44.000Z</time>
      </trkpt>
      <trkpt lat="44.83984" lon="0.67252">
        <ele>90</ele>
        <time>2014-03-30T17:06:46.000Z</time>
      </trkpt>
      <trkpt lat="44.83981" lon="0.67261">
        <ele>91</ele>
        <time>2014-03-30T17:06:48.000Z</time>
      </trkpt>
      <trkpt lat="44.83978" lon="0.67269">
        <ele>92</ele>
        <time>2014-03-30T17:06:50.000Z</time>
      </trkpt>
      <trkpt lat="44.83976" lon="0.67276">
        <ele>93</ele>
        <time>2014-03-30T17:06:52.000Z</time>
      </trkpt>
      <trkpt lat="44.83973" lon="0.67288">
        <ele>91</ele>
        <time>2014-03-30T17:06:54.000Z</time>
      </trkpt>
      <trkpt lat="44.83973" lon="0.67288">
        <ele>91</ele>
        <time>2014-03-30T17:06:56.000Z</time>
      </trkpt>
      <trkpt lat="44.83968" lon="0.67304">
        <ele>89</ele>
        <time>2014-03-30T17:07:00.000Z</time>
      </trkpt>
      <trkpt lat="44.83963" lon="0.67316">
        <ele>86</ele>
        <time>2014-03-30T17:07:04.000Z</time>
      </trkpt>
      <trkpt lat="44.83963" lon="0.67316">
        <ele>86</ele>
        <time>2014-03-30T17:07:06.000Z</time>
      </trkpt>
      <trkpt lat="44.83963" lon="0.67316">
        <ele>86</ele>
        <time>2014-03-30T17:07:08.000Z</time>
      </trkpt>
      <trkpt lat="44.83956" lon="0.67339">
        <ele>85</ele>
        <time>2014-03-30T17:07:12.000Z</time>
      </trkpt>
      <trkpt lat="44.83952" lon="0.67352">
        <ele>84</ele>
        <time>2014-03-30T17:07:16.000Z</time>
      </trkpt>
      <trkpt lat="44.83952" lon="0.67352">
        <ele>84</ele>
        <time>2014-03-30T17:07:18.000Z</time>
      </trkpt>
      <trkpt lat="44.83952" lon="0.67352">
        <ele>84</ele>
        <time>2014-03-30T17:07:20.000Z</time>
      </trkpt>
      <trkpt lat="44.83952" lon="0.67352">
        <ele>84</ele>
        <time>2014-03-30T17:07:22.000Z</time>
      </trkpt>
      <trkpt lat="44.83952" lon="0.67352">
        <ele>84</ele>
        <time>2014-03-30T17:07:26.000Z</time>
      </trkpt>
      <trkpt lat="44.83952" lon="0.67352">
        <ele>84</ele>
        <time>2014-03-30T17:07:28.000Z</time>
      </trkpt>
      <trkpt lat="44.83952" lon="0.67352">
        <ele>84</ele>
        <time>2014-03-30T17:07:30.000Z</time>
      </trkpt>
      <trkpt lat="44.83952" lon="0.67352">
        <ele>84</ele>
        <time>2014-03-30T17:07:32.000Z</time>
      </trkpt>
      <trkpt lat="44.83952" lon="0.67352">
        <ele>84</ele>
        <time>2014-03-30T17:07:34.000Z</time>
      </trkpt>
      <trkpt lat="44.83952" lon="0.67352">
        <ele>84</ele>
        <time>2014-03-30T17:07:36.000Z</time>
      </trkpt>
    </trkseg>
  </trk>
</gpx>